| time (UTC) | temp F | wind direction | speed MPH | gust MPH | rain 1hr in | rain 24hr in | rain mn in | humidity % | barometer mb |
| 20260831010002 | 57 | 270 | 1.0 | 5.0 | 0.46 | 0.64 | 0.48 | 95 | 1003.4 |
| 20260831005923 | 57 | 270 | 1.0 | 5.0 | 0.46 | 0.64 | 0.48 | 95 | 1003.4 |
| 20260831005802 | 57 | 272 | 1.0 | 5.0 | 0.45 | 0.63 | 0.48 | 95 | 1003.4 |
| 20260831005702 | 57 | 273 | 2.0 | 5.0 | 0.45 | 0.63 | 0.47 | 95 | 1003.4 |
| 20260831005602 | 57 | 275 | 2.0 | 7.0 | 0.45 | 0.63 | 0.47 | 95 | 1003.4 |
| 20260831005502 | 57 | 278 | 3.0 | 7.0 | 0.43 | 0.61 | 0.46 | 95 | 1003.4 |
| 20260831005402 | 57 | 281 | 3.0 | 7.0 | 0.42 | 0.60 | 0.45 | 95 | 1003.4 |
| 20260831005323 | 57 | 282 | 3.0 | 7.0 | 0.40 | 0.58 | 0.43 | 95 | 1003.4 |
| 20260831005202 | 57 | 286 | 5.0 | 8.0 | 0.39 | 0.57 | 0.42 | 95 | 1003.4 |
| 20260831005123 | 57 | 288 | 5.0 | 9.0 | 0.38 | 0.56 | 0.41 | 95 | 1003.4 |
| 20260831005002 | 57 | 291 | 5.0 | 10.0 | 0.35 | 0.53 | 0.39 | 95 | 1003.4 |
| 20260831004902 | 58 | 294 | 6.0 | 10.0 | 0.33 | 0.51 | 0.36 | 95 | 1003.4 |
| 20260831004802 | 58 | 295 | 7.0 | 10.0 | 0.31 | 0.49 | 0.35 | 95 | 1003.4 |
| 20260831004702 | 58 | 294 | 7.0 | 12.0 | 0.29 | 0.47 | 0.32 | 95 | 1003.4 |
| 20260831004623 | 58 | 295 | 7.0 | 12.0 | 0.28 | 0.46 | 0.31 | 95 | 1003.4 |
| 20260831004502 | 58 | 295 | 8.0 | 12.0 | 0.27 | 0.45 | 0.30 | 95 | 1003.4 |
| 20260831004402 | 58 | 294 | 8.0 | 12.0 | 0.24 | 0.43 | 0.28 | 95 | 1003.4 |
| 20260831004302 | 58 | 293 | 8.0 | 12.0 | 0.23 | 0.41 | 0.26 | 95 | 1003.4 |
| 20260831004202 | 58 | 289 | 7.0 | 12.0 | 0.20 | 0.38 | 0.24 | 95 | 1003.4 |
| 20260831004102 | 58 | 285 | 7.0 | 12.0 | 0.17 | 0.35 | 0.20 | 95 | 1003.4 |
| 20260831004002 | 58 | 281 | 7.0 | 12.0 | 0.17 | 0.35 | 0.20 | 94 | 1003.4 |
| 20260831003923 | 58 | 277 | 7.0 | 12.0 | 0.17 | 0.35 | 0.19 | 94 | 1003.4 |
| 20260831003802 | 58 | 266 | 6.0 | 12.0 | 0.15 | 0.33 | 0.18 | 95 | 1003.4 |
| 20260831003702 | 58 | 258 | 5.0 | 11.0 | 0.14 | 0.32 | 0.17 | 95 | 1003.4 |
| 20260831003602 | 58 | 243 | 4.0 | 11.0 | 0.13 | 0.31 | 0.16 | 95 | 1003.4 |
| 20260831003502 | 58 | 214 | 4.0 | 9.0 | 0.13 | 0.31 | 0.16 | 94 | 1003.4 |
| 20260831003402 | 58 | 187 | 3.0 | 7.0 | 0.13 | 0.31 | 0.15 | 95 | 1003.4 |
| 20260831003302 | 58 | 165 | 3.0 | 5.0 | 0.13 | 0.31 | 0.15 | 94 | 1003.4 |
| 20260831003203 | 58 | 151 | 3.0 | 5.0 | 0.13 | 0.31 | 0.15 | 94 | 1003.4 |
| 20260831003102 | 58 | 144 | 2.0 | 5.0 | 0.13 | 0.31 | 0.15 | 94 | 1003.4 |
| 20260831003002 | 58 | 135 | 2.0 | 5.0 | 0.13 | 0.31 | 0.15 | 94 | 1003.4 |
| 20260831002923 | 58 | 131 | 2.0 | 5.0 | 0.13 | 0.30 | 0.15 | 94 | 1003.4 |
| 20260831002802 | 58 | 120 | 1.0 | 4.0 | 0.13 | 0.30 | 0.14 | 94 | 1003.4 |
| 20260831002723 | 58 | 119 | 1.0 | 3.0 | 0.13 | 0.30 | 0.14 | 94 | 1003.4 |
| 20260831002623 | 58 | 118 | 1.0 | 4.0 | 0.13 | 0.30 | 0.14 | 94 | 1003.4 |
| 20260831002502 | 58 | 118 | 1.0 | 4.0 | 0.12 | 0.29 | 0.13 | 94 | 1003.4 |
| 20260831002423 | 58 | 117 | 1.0 | 4.0 | 0.12 | 0.29 | 0.13 | 94 | 1003.4 |
| 20260831002305 | 58 | 114 | 2.0 | 5.0 | 0.12 | 0.29 | 0.13 | 94 | 1003.4 |
| 20260831002202 | 58 | 113 | 1.0 | 5.0 | 0.12 | 0.29 | 0.13 | 94 | 1003.4 |
| 20260831002102 | 58 | 112 | 1.0 | 5.0 | 0.12 | 0.29 | 0.13 | 94 | 1003.4 |
| 20260831002023 | 58 | 112 | 1.0 | 5.0 | 0.11 | 0.28 | 0.13 | 94 | 1003.4 |
| 20260831001902 | 58 | 112 | 2.0 | 5.0 | 0.09 | 0.27 | 0.12 | 94 | 1003.4 |
| 20260831001802 | 58 | 111 | 2.0 | 5.0 | 0.08 | 0.25 | 0.09 | 94 | 1003.4 |
| 20260831001702 | 58 | 109 | 2.0 | 5.0 | 0.05 | 0.22 | 0.06 | 94 | 1003.4 |
| 20260831001603 | 58 | 107 | 2.0 | 5.0 | 0.02 | 0.20 | 0.05 | 94 | 1003.4 |
| 20260831001502 | 58 | 106 | 2.0 | 5.0 | 0.02 | 0.19 | 0.03 | 94 | 1003.4 |
| 20260831001402 | 58 | 104 | 2.0 | 5.0 | 0.02 | 0.19 | 0.03 | 94 | 1003.4 |
| 20260831001302 | 58 | 104 | 2.0 | 4.0 | 0.01 | 0.18 | 0.02 | 94 | 1003.4 |
| 20260831001202 | 58 | 104 | 2.0 | 4.0 | 0.01 | 0.18 | 0.02 | 94 | 1003.4 |
| 20260831001102 | 58 | 104 | 2.0 | 4.0 | 0.02 | 0.18 | 0.02 | 94 | 1003.4 |
| 20260831001002 | 58 | 104 | 2.0 | 4.0 | 0.02 | 0.18 | 0.02 | 94 | 1003.4 |
| 20260831000923 | 58 | 104 | 2.0 | 4.0 | 0.02 | 0.18 | 0.02 | 94 | 1003.4 |
| 20260831000802 | 58 | 108 | 2.0 | 5.0 | 0.02 | 0.18 | 0.02 | 94 | 1003.4 |
| 20260831000702 | 58 | 114 | 2.0 | 5.0 | 0.02 | 0.18 | 0.02 | 94 | 1003.4 |
| 20260831000602 | 58 | 118 | 2.0 | 5.0 | 0.02 | 0.18 | 0.02 | 94 | 1003.4 |
| 20260831000502 | 58 | 122 | 2.0 | 5.0 | 0.02 | 0.18 | 0.02 | 94 | 1003.4 |
| 20260831000403 | 58 | 125 | 2.0 | 5.0 | 0.02 | 0.18 | 0.02 | 94 | 1003.4 |
| 20260831000303 | 58 | 129 | 2.0 | 5.0 | 0.02 | 0.18 | 0.02 | 94 | 1003.4 |
| 20260831000203 | 58 | 131 | 2.0 | 5.0 | 0.02 | 0.18 | 0.02 | 94 | 1003.4 |
| 20260831000002 | 58 | 133 | 2.0 | 5.0 | 0.02 | 0.18 | 0.02 | 94 | 1003.4 |
| 20260830235923 | 58 | 134 | 2.0 | 5.0 | 0.02 | 0.18 | 0.02 | 94 | 1003.4 |
| 20260830235802 | 58 | 137 | 2.0 | 5.0 | 0.02 | 0.18 | 0.02 | 94 | 1003.4 |
| 20260830235702 | 58 | 137 | 1.0 | 5.0 | 0.02 | 0.18 | 0.02 | 94 | 1003.4 |
| 20260830235603 | 58 | 137 | 1.0 | 5.0 | 0.02 | 0.18 | 0.02 | 94 | 1003.4 |
| 20260830235502 | 58 | 137 | 1.0 | 5.0 | 0.02 | 0.18 | 0.02 | 94 | 1003.4 |
| 20260830235402 | 58 | 137 | 1.0 | 5.0 | 0.02 | 0.18 | 0.02 | 94 | 1003.4 |
| 20260830235305 | 58 | 137 | 1.0 | 3.0 | 0.02 | 0.18 | 0.02 | 94 | 1003.4 |
| 20260830235202 | 58 | 137 | 1.0 | 3.0 | 0.03 | 0.18 | 0.02 | 94 | 1003.4 |
| 20260830235123 | 58 | 137 | 1.0 | 3.0 | 0.03 | 0.18 | 0.02 | 94 | 1003.4 |
| 20260830235002 | 58 | 137 | 1.0 | 3.0 | 0.03 | 0.18 | 0.02 | 94 | 1003.4 |
| 20260830234902 | 58 | 137 | 1.0 | 3.0 | 0.03 | 0.18 | 0.02 | 94 | 1003.4 |
| 20260830234802 | 58 | 137 | 1.0 | 3.0 | 0.03 | 0.18 | 0.02 | 94 | 1003.4 |
| 20260830234702 | 58 | 137 | 1.0 | 3.0 | 0.03 | 0.18 | 0.02 | 94 | 1003.4 |
| 20260830234602 | 58 | 137 | 1.0 | 3.0 | 0.03 | 0.18 | 0.02 | 94 | 1003.4 |
| 20260830234502 | 58 | 137 | 0.0 | 3.0 | 0.03 | 0.18 | 0.02 | 94 | 1003.4 |
| 20260830234423 | 58 | 137 | 0.0 | 2.0 | 0.03 | 0.18 | 0.02 | 94 | 1003.4 |
| 20260830234302 | 58 | 137 | 1.0 | 4.0 | 0.03 | 0.18 | 0.02 | 94 | 1003.4 |
| 20260830234202 | 58 | 137 | 1.0 | 4.0 | 0.04 | 0.18 | 0.02 | 94 | 1003.4 |
| 20260830234102 | 58 | 137 | 1.0 | 4.0 | 0.04 | 0.18 | 0.02 | 94 | 1003.4 |
| 20260830234002 | 58 | 137 | 1.0 | 4.0 | 0.04 | 0.18 | 0.02 | 94 | 1003.4 |
| 20260830233902 | 58 | 137 | 1.0 | 4.0 | 0.04 | 0.18 | 0.02 | 94 | 1003.4 |
| 20260830233803 | 58 | 137 | 1.0 | 4.0 | 0.05 | 0.18 | 0.02 | 94 | 1003.4 |
| 20260830233703 | 58 | 137 | 1.0 | 4.0 | 0.05 | 0.18 | 0.02 | 94 | 1003.4 |
| 20260830233602 | 58 | 137 | 1.0 | 4.0 | 0.06 | 0.18 | 0.02 | 94 | 1003.4 |
| 20260830233502 | 58 | 137 | 1.0 | 4.0 | 0.06 | 0.18 | 0.02 | 94 | 1003.4 |
| 20260830233402 | 58 | 137 | 2.0 | 4.0 | 0.06 | 0.18 | 0.02 | 94 | 1003.4 |
| 20260830233302 | 58 | 137 | 2.0 | 4.0 | 0.06 | 0.18 | 0.02 | 94 | 1003.4 |
| 20260830233202 | 58 | 137 | 2.0 | 4.0 | 0.06 | 0.17 | 0.02 | 94 | 1003.4 |
| 20260830233102 | 58 | 140 | 2.0 | 4.0 | 0.06 | 0.17 | 0.02 | 94 | 1003.4 |
| 20260830233002 | 58 | 143 | 2.0 | 4.0 | 0.06 | 0.17 | 0.02 | 94 | 1003.4 |
| 20260830232923 | 58 | 146 | 2.0 | 4.0 | 0.06 | 0.17 | 0.02 | 94 | 1003.4 |
| 20260830232823 | 58 | 150 | 2.0 | 4.0 | 0.06 | 0.17 | 0.02 | 93 | 1003.4 |
| 20260830232702 | 58 | 156 | 2.0 | 3.0 | 0.07 | 0.17 | 0.02 | 93 | 1003.4 |
| 20260830232602 | 58 | 160 | 1.0 | 3.0 | 0.07 | 0.17 | 0.02 | 93 | 1003.4 |
| 20260830232523 | 58 | 165 | 1.0 | 3.0 | 0.07 | 0.17 | 0.02 | 93 | 1003.4 |
| 20260830232423 | 58 | 172 | 1.0 | 3.0 | 0.07 | 0.17 | 0.02 | 93 | 1003.4 |
| 20260830232305 | 58 | 182 | 1.0 | 3.0 | 0.08 | 0.17 | 0.02 | 93 | 1003.4 |
| 20260830232202 | 58 | 191 | 1.0 | 2.0 | 0.08 | 0.17 | 0.02 | 93 | 1003.4 |
| 20260830232102 | 58 | 196 | 1.0 | 5.0 | 0.08 | 0.17 | 0.02 | 93 | 1003.4 |
| 20260830232025 | 58 | 196 | 1.0 | 5.0 | 0.08 | 0.17 | 0.02 | 93 | 1003.4 |
| 20260830231902 | 58 | 196 | 2.0 | 5.0 | 0.08 | 0.17 | 0.02 | 93 | 1003.4 |
| 20260830231802 | 58 | 197 | 2.0 | 5.0 | 0.09 | 0.17 | 0.02 | 93 | 1003.4 |
| 20260830231702 | 58 | 197 | 2.0 | 5.0 | 0.09 | 0.17 | 0.02 | 93 | 1003.4 |
| 20260830231602 | 58 | 197 | 2.0 | 5.0 | 0.09 | 0.17 | 0.02 | 93 | 1003.4 |
| 20260830231502 | 58 | 197 | 3.0 | 5.0 | 0.09 | 0.17 | 0.02 | 93 | 1003.4 |
| 20260830231423 | 58 | 197 | 3.0 | 5.0 | 0.09 | 0.17 | 0.02 | 93 | 1003.4 |
| 20260830231302 | 58 | 197 | 3.0 | 5.0 | 0.09 | 0.17 | 0.02 | 93 | 1003.4 |
| 20260830231202 | 58 | 197 | 3.0 | 5.0 | 0.10 | 0.17 | 0.02 | 93 | 1003.4 |
| 20260830231124 | 58 | 197 | 3.0 | 5.0 | 0.10 | 0.17 | 0.02 | 93 | 1003.4 |
| 20260830231002 | 58 | 198 | 3.0 | 5.0 | 0.11 | 0.17 | 0.01 | 93 | 1003.4 |
| 20260830230902 | 58 | 200 | 3.0 | 6.0 | 0.11 | 0.17 | 0.01 | 93 | 1003.4 |
| 20260830230802 | 58 | 200 | 4.0 | 6.0 | 0.11 | 0.17 | 0.01 | 93 | 1003.4 |
| 20260830230702 | 58 | 201 | 4.0 | 6.0 | 0.12 | 0.17 | 0.01 | 93 | 1003.4 |
| 20260830230602 | 58 | 203 | 4.0 | 6.0 | 0.12 | 0.17 | 0.01 | 93 | 1003.4 |
| 20260830230502 | 58 | 204 | 4.0 | 6.0 | 0.12 | 0.17 | 0.01 | 93 | 1003.4 |
| 20260830230402 | 58 | 206 | 5.0 | 7.0 | 0.12 | 0.17 | 0.01 | 93 | 1003.4 |
| 20260830230323 | 58 | 207 | 5.0 | 7.0 | 0.12 | 0.17 | 0.01 | 93 | 1003.4 |
| 20260830230202 | 58 | 208 | 5.0 | 7.0 | 0.11 | 0.16 | 0.00 | 93 | 1003.4 |
| 20260830230123 | 58 | 209 | 5.0 | 7.0 | 0.11 | 0.16 | 0.00 | 93 | 1003.4 |
| 20260830230003 | 58 | 210 | 5.0 | 7.0 | 0.11 | 0.16 | 0.00 | 93 | 1003.4 |
| 20260830225923 | 58 | 210 | 5.0 | 7.0 | 0.11 | 0.16 | 0.16 | 93 | 1003.4 |
| 20260830225802 | 58 | 211 | 6.0 | 8.0 | 0.11 | 0.16 | 0.16 | 93 | 1003.4 |
| 20260830225723 | 58 | 211 | 6.0 | 8.0 | 0.11 | 0.16 | 0.16 | 93 | 1003.4 |
| 20260830225602 | 58 | 210 | 6.0 | 8.0 | 0.11 | 0.16 | 0.16 | 93 | 1003.4 |
| 20260830225502 | 58 | 210 | 6.0 | 8.0 | 0.11 | 0.16 | 0.16 | 92 | 1003.4 |
| 20260830225402 | 58 | 210 | 6.0 | 8.0 | 0.11 | 0.16 | 0.16 | 92 | 1003.4 |
| 20260830225305 | 58 | 211 | 6.0 | 8.0 | 0.11 | 0.16 | 0.16 | 92 | 1003.4 |
| 20260830225202 | 58 | 212 | 6.0 | 8.0 | 0.10 | 0.15 | 0.15 | 92 | 1003.4 |
| 20260830225102 | 58 | 213 | 6.0 | 8.0 | 0.10 | 0.15 | 0.15 | 92 | 1003.4 |
| 20260830225002 | 58 | 214 | 6.0 | 8.0 | 0.10 | 0.15 | 0.15 | 92 | 1003.4 |
| 20260830224923 | 58 | 215 | 6.0 | 8.0 | 0.10 | 0.15 | 0.15 | 92 | 1003.4 |
| 20260830224802 | 58 | 217 | 6.0 | 9.0 | 0.10 | 0.15 | 0.15 | 92 | 1003.4 |
| 20260830224702 | 58 | 217 | 7.0 | 10.0 | 0.10 | 0.15 | 0.15 | 92 | 1003.4 |
| 20260830224602 | 58 | 217 | 7.0 | 10.0 | 0.10 | 0.15 | 0.15 | 92 | 1003.4 |
| 20260830224502 | 58 | 217 | 7.0 | 10.0 | 0.10 | 0.15 | 0.15 | 92 | 1003.4 |
| 20260830224402 | 58 | 217 | 7.0 | 10.0 | 0.10 | 0.15 | 0.15 | 92 | 1003.4 |
| 20260830224323 | 58 | 216 | 7.0 | 10.0 | 0.10 | 0.15 | 0.15 | 92 | 1003.4 |
| 20260830224202 | 58 | 215 | 8.0 | 10.0 | 0.09 | 0.14 | 0.14 | 92 | 1003.4 |
| 20260830224102 | 58 | 215 | 8.0 | 10.0 | 0.09 | 0.14 | 0.14 | 92 | 1003.4 |
| 20260830224023 | 58 | 214 | 8.0 | 11.0 | 0.09 | 0.14 | 0.14 | 92 | 1003.4 |
| 20260830223902 | 58 | 213 | 8.0 | 11.0 | 0.09 | 0.14 | 0.14 | 92 | 1003.4 |
| 20260830223802 | 58 | 212 | 9.0 | 11.0 | 0.09 | 0.13 | 0.13 | 92 | 1003.4 |
| 20260830223702 | 58 | 212 | 9.0 | 12.0 | 0.09 | 0.13 | 0.13 | 92 | 1003.4 |
| 20260830223602 | 58 | 212 | 9.0 | 12.0 | 0.08 | 0.13 | 0.13 | 92 | 1003.4 |
| 20260830223502 | 58 | 212 | 9.0 | 12.0 | 0.08 | 0.13 | 0.13 | 92 | 1003.4 |
| 20260830223403 | 58 | 212 | 9.0 | 12.0 | 0.08 | 0.13 | 0.13 | 92 | 1003.4 |
| 20260830223302 | 58 | 213 | 9.0 | 12.0 | 0.07 | 0.12 | 0.12 | 92 | 1003.4 |
| 20260830223223 | 58 | 213 | 9.0 | 12.0 | 0.07 | 0.12 | 0.12 | 92 | 1003.4 |
| 20260830223102 | 58 | 215 | 10.0 | 13.0 | 0.06 | 0.11 | 0.12 | 91 | 1003.4 |
| 20260830223002 | 59 | 217 | 10.0 | 14.0 | 0.06 | 0.11 | 0.11 | 91 | 1003.4 |
| 20260830222923 | 59 | 218 | 10.0 | 15.0 | 0.06 | 0.11 | 0.11 | 91 | 1003.4 |
| 20260830222802 | 59 | 220 | 10.0 | 15.0 | 0.06 | 0.11 | 0.11 | 91 | 1003.4 |
| 20260830222702 | 59 | 222 | 11.0 | 15.0 | 0.06 | 0.10 | 0.10 | 91 | 1003.4 |
| 20260830222602 | 59 | 223 | 11.0 | 15.0 | 0.06 | 0.10 | 0.10 | 92 | 1003.4 |
| 20260830222523 | 59 | 224 | 12.0 | 16.0 | 0.06 | 0.10 | 0.10 | 92 | 1003.4 |
| 20260830222402 | 59 | 224 | 12.0 | 19.0 | 0.06 | 0.10 | 0.10 | 91 | 1003.4 |
| 20260830222306 | 59 | 224 | 12.0 | 19.0 | 0.05 | 0.09 | 0.09 | 91 | 1003.4 |
| 20260830222202 | 59 | 223 | 12.0 | 19.0 | 0.05 | 0.09 | 0.09 | 91 | 1003.4 |
| 20260830222103 | 59 | 221 | 12.0 | 19.0 | 0.05 | 0.09 | 0.09 | 91 | 1003.4 |
| 20260830222002 | 59 | 219 | 12.0 | 19.0 | 0.05 | 0.09 | 0.09 | 91 | 1003.4 |
| 20260830221902 | 59 | 217 | 13.0 | 19.0 | 0.05 | 0.09 | 0.09 | 91 | 1003.4 |
| 20260830221802 | 59 | 215 | 13.0 | 19.0 | 0.04 | 0.09 | 0.09 | 90 | 1003.4 |
| 20260830221702 | 59 | 213 | 13.0 | 19.0 | 0.04 | 0.09 | 0.09 | 90 | 1003.4 |
| 20260830221623 | 59 | 212 | 13.0 | 19.0 | 0.04 | 0.09 | 0.09 | 90 | 1003.4 |
| 20260830221502 | 59 | 212 | 12.0 | 19.0 | 0.04 | 0.09 | 0.09 | 90 | 1003.4 |
| 20260830221402 | 59 | 212 | 12.0 | 19.0 | 0.04 | 0.09 | 0.09 | 90 | 1003.4 |
| 20260830221302 | 60 | 211 | 12.0 | 19.0 | 0.03 | 0.08 | 0.08 | 90 | 1003.4 |
| 20260830221203 | 60 | 213 | 12.0 | 19.0 | 0.02 | 0.07 | 0.07 | 89 | 1003.4 |
| 20260830221102 | 60 | 215 | 12.0 | 19.0 | 0.02 | 0.06 | 0.06 | 89 | 1003.4 |
| 20260830221002 | 60 | 216 | 11.0 | 19.0 | 0.01 | 0.06 | 0.06 | 89 | 1003.4 |
| 20260830220902 | 60 | 218 | 11.0 | 19.0 | 0.01 | 0.06 | 0.06 | 89 | 1003.4 |
| 20260830220802 | 60 | 219 | 10.0 | 15.0 | 0.01 | 0.06 | 0.06 | 89 | 1003.4 |
| 20260830220702 | 60 | 221 | 10.0 | 15.0 | 0.00 | 0.05 | 0.05 | 89 | 1003.4 |
| 20260830220602 | 60 | 221 | 10.0 | 15.0 | 0.00 | 0.05 | 0.05 | 90 | 1003.4 |
| 20260830220502 | 60 | 220 | 10.0 | 15.0 | 0.00 | 0.05 | 0.05 | 90 | 1003.4 |
| 20260830220423 | 60 | 220 | 10.0 | 15.0 | 0.00 | 0.05 | 0.05 | 90 | 1003.4 |
| 20260830220302 | 60 | 219 | 9.0 | 15.0 | 0.00 | 0.05 | 0.05 | 90 | 1003.4 |
| 20260830220223 | 60 | 218 | 9.0 | 15.0 | 0.01 | 0.05 | 0.05 | 90 | 1003.4 |
| 20260830220002 | 60 | 214 | 9.0 | 12.0 | 0.01 | 0.05 | 0.05 | 91 | 1003.4 |
| 20260830215902 | 60 | 212 | 8.0 | 11.0 | 0.01 | 0.05 | 0.05 | 91 | 1003.4 |
| 20260830215802 | 60 | 210 | 8.0 | 11.0 | 0.01 | 0.05 | 0.05 | 91 | 1003.4 |
| 20260830215702 | 60 | 209 | 8.0 | 11.0 | 0.01 | 0.05 | 0.05 | 90 | 1003.4 |
| 20260830215602 | 60 | 208 | 8.0 | 11.0 | 0.01 | 0.05 | 0.05 | 90 | 1003.4 |
| 20260830215502 | 60 | 207 | 8.0 | 10.0 | 0.01 | 0.05 | 0.05 | 90 | 1003.4 |
| 20260830215402 | 60 | 206 | 7.0 | 10.0 | 0.01 | 0.05 | 0.05 | 90 | 1003.4 |
| 20260830215305 | 60 | 205 | 7.0 | 10.0 | 0.01 | 0.05 | 0.05 | 90 | 1003.4 |
| 20260830215202 | 60 | 204 | 7.0 | 10.0 | 0.02 | 0.05 | 0.05 | 91 | 1003.4 |
| 20260830215102 | 60 | 203 | 7.0 | 10.0 | 0.02 | 0.05 | 0.05 | 91 | 1003.4 |
| 20260830215002 | 60 | 202 | 7.0 | 9.0 | 0.02 | 0.05 | 0.05 | 90 | 1003.4 |
| 20260830214902 | 60 | 201 | 7.0 | 8.0 | 0.02 | 0.05 | 0.05 | 90 | 1003.4 |
| 20260830214823 | 60 | 201 | 7.0 | 8.0 | 0.02 | 0.05 | 0.05 | 90 | 1003.4 |
| 20260830214702 | 60 | 199 | 6.0 | 8.0 | 0.02 | 0.05 | 0.05 | 90 | 1003.4 |
| 20260830214602 | 60 | 197 | 6.0 | 8.0 | 0.02 | 0.05 | 0.05 | 90 | 1003.4 |
| 20260830214502 | 60 | 196 | 6.0 | 8.0 | 0.02 | 0.05 | 0.05 | 90 | 1003.4 |
| 20260830214423 | 60 | 195 | 6.0 | 8.0 | 0.02 | 0.05 | 0.05 | 90 | 1003.4 |
| 20260830214323 | 60 | 194 | 6.0 | 8.0 | 0.02 | 0.05 | 0.05 | 90 | 1003.4 |
| 20260830214202 | 60 | 193 | 6.0 | 8.0 | 0.03 | 0.05 | 0.05 | 90 | 1003.4 |
| 20260830214102 | 60 | 193 | 6.0 | 8.0 | 0.03 | 0.05 | 0.05 | 90 | 1003.4 |
| 20260830214002 | 60 | 192 | 6.0 | 8.0 | 0.03 | 0.05 | 0.05 | 90 | 1003.4 |
| 20260830213902 | 60 | 191 | 5.0 | 8.0 | 0.04 | 0.05 | 0.05 | 90 | 1003.4 |
| 20260830213802 | 60 | 191 | 5.0 | 8.0 | 0.04 | 0.05 | 0.05 | 90 | 1003.4 |
| 20260830213702 | 60 | 192 | 5.0 | 8.0 | 0.04 | 0.05 | 0.05 | 90 | 1003.4 |
| 20260830213602 | 60 | 193 | 6.0 | 8.0 | 0.04 | 0.05 | 0.05 | 90 | 1003.4 |
| 20260830213502 | 60 | 195 | 6.0 | 8.0 | 0.04 | 0.05 | 0.05 | 90 | 1003.4 |
| 20260830213402 | 60 | 197 | 6.0 | 8.0 | 0.04 | 0.05 | 0.05 | 90 | 1003.4 |
| 20260830213323 | 60 | 198 | 6.0 | 8.0 | 0.04 | 0.05 | 0.05 | 90 | 1003.4 |
| 20260830213202 | 60 | 201 | 6.0 | 8.0 | 0.04 | 0.05 | 0.05 | 90 | 1003.4 |
| 20260830213102 | 60 | 203 | 6.0 | 8.0 | 0.04 | 0.05 | 0.05 | 90 | 1003.4 |
| 20260830213023 | 60 | 204 | 6.0 | 8.0 | 0.04 | 0.05 | 0.05 | 90 | 1003.4 |
| 20260830212903 | 60 | 208 | 6.0 | 8.0 | 0.05 | 0.05 | 0.05 | 90 | 1003.4 |
| 20260830212802 | 60 | 210 | 7.0 | 9.0 | 0.05 | 0.05 | 0.05 | 90 | 1003.4 |
| 20260830212723 | 60 | 212 | 7.0 | 9.0 | 0.05 | 0.05 | 0.05 | 90 | 1003.4 |
| 20260830212602 | 60 | 214 | 7.0 | 9.0 | 0.05 | 0.05 | 0.05 | 90 | 1003.4 |
| 20260830212502 | 60 | 216 | 7.0 | 9.0 | 0.05 | 0.05 | 0.05 | 90 | 1003.4 |
| 20260830212402 | 60 | 218 | 7.0 | 10.0 | 0.05 | 0.05 | 0.05 | 90 | 1003.4 |
| 20260830212305 | 60 | 219 | 7.0 | 10.0 | 0.05 | 0.05 | 0.05 | 90 | 1003.4 |
| 20260830212202 | 60 | 220 | 8.0 | 10.0 | 0.05 | 0.05 | 0.05 | 90 | 1003.4 |
| 20260830212123 | 60 | 221 | 8.0 | 10.0 | 0.05 | 0.05 | 0.05 | 90 | 1003.4 |
| 20260830212002 | 60 | 221 | 8.0 | 10.0 | 0.05 | 0.05 | 0.05 | 90 | 1003.4 |
| 20260830211902 | 60 | 219 | 8.0 | 10.0 | 0.05 | 0.05 | 0.05 | 90 | 1003.4 |
| 20260830211802 | 60 | 218 | 8.0 | 10.0 | 0.05 | 0.05 | 0.05 | 90 | 1003.4 |
| 20260830211702 | 60 | 216 | 8.0 | 10.0 | 0.05 | 0.05 | 0.05 | 90 | 1003.4 |
| 20260830211602 | 60 | 215 | 8.0 | 10.0 | 0.05 | 0.05 | 0.05 | 90 | 1003.4 |
| 20260830211502 | 60 | 214 | 8.0 | 11.0 | 0.05 | 0.05 | 0.05 | 90 | 1003.4 |
| 20260830211402 | 60 | 213 | 8.0 | 11.0 | 0.05 | 0.05 | 0.05 | 90 | 1003.4 |
| 20260830211323 | 60 | 213 | 8.0 | 11.0 | 0.05 | 0.05 | 0.05 | 90 | 1003.4 |
| 20260830211223 | 60 | 213 | 8.0 | 11.0 | 0.05 | 0.05 | 0.05 | 90 | 1003.4 |
| 20260830211123 | 60 | 213 | 9.0 | 11.0 | 0.05 | 0.05 | 0.05 | 90 | 1003.4 |
| 20260830211002 | 60 | 214 | 9.0 | 12.0 | 0.05 | 0.05 | 0.05 | 90 | 1003.4 |
| 20260830210902 | 60 | 215 | 9.0 | 12.0 | 0.05 | 0.05 | 0.05 | 90 | 1003.4 |
| 20260830210802 | 60 | 216 | 9.0 | 13.0 | 0.05 | 0.05 | 0.05 | 90 | 1003.4 |
| 20260830210702 | 60 | 218 | 10.0 | 13.0 | 0.05 | 0.05 | 0.05 | 90 | 1003.4 |
| 20260830210603 | 60 | 218 | 10.0 | 13.0 | 0.05 | 0.05 | 0.05 | 90 | 1003.4 |
| 20260830210502 | 60 | 219 | 10.0 | 13.0 | 0.05 | 0.05 | 0.05 | 90 | 1003.4 |
| 20260830210402 | 60 | 220 | 10.0 | 13.0 | 0.05 | 0.05 | 0.05 | 90 | 1003.4 |
| 20260830210302 | 60 | 220 | 10.0 | 13.0 | 0.05 | 0.05 | 0.05 | 89 | 1003.4 |
| 20260830210202 | 60 | 220 | 10.0 | 13.0 | 0.04 | 0.04 | 0.04 | 90 | 1003.4 |
| 20260830210023 | 60 | 220 | 10.0 | 14.0 | 0.04 | 0.04 | 0.04 | 90 | 1003.4 |
| 20260830205923 | 60 | 220 | 11.0 | 14.0 | 0.04 | 0.04 | 0.04 | 89 | 1003.4 |
| 20260830205802 | 60 | 219 | 12.0 | 16.0 | 0.04 | 0.04 | 0.04 | 89 | 1003.4 |
| 20260830205702 | 60 | 220 | 12.0 | 18.0 | 0.04 | 0.04 | 0.04 | 89 | 1003.4 |
| 20260830205602 | 60 | 219 | 13.0 | 19.0 | 0.04 | 0.04 | 0.04 | 89 | 1003.4 |
| 20260830205502 | 60 | 219 | 13.0 | 19.0 | 0.04 | 0.04 | 0.04 | 89 | 1003.4 |
| 20260830205402 | 61 | 220 | 14.0 | 19.0 | 0.04 | 0.04 | 0.04 | 89 | 1003.4 |
| 20260830205305 | 61 | 220 | 14.0 | 20.0 | 0.04 | 0.04 | 0.04 | 89 | 1003.4 |
| 20260830205202 | 61 | 220 | 14.0 | 20.0 | 0.03 | 0.03 | 0.03 | 88 | 1003.4 |
| 20260830205102 | 61 | 221 | 14.0 | 20.0 | 0.03 | 0.03 | 0.03 | 88 | 1003.4 |
| 20260830205002 | 61 | 221 | 15.0 | 20.0 | 0.03 | 0.03 | 0.03 | 88 | 1003.4 |
| 20260830204902 | 61 | 222 | 14.0 | 20.0 | 0.03 | 0.03 | 0.03 | 88 | 1003.4 |
| 20260830204823 | 61 | 222 | 14.0 | 20.0 | 0.02 | 0.02 | 0.03 | 88 | 1003.4 |
| 20260830204702 | 61 | 223 | 14.0 | 20.0 | 0.02 | 0.02 | 0.02 | 88 | 1003.4 |
| 20260830204602 | 61 | 224 | 15.0 | 20.0 | 0.02 | 0.02 | 0.02 | 88 | 1003.4 |
| 20260830204502 | 61 | 224 | 15.0 | 20.0 | 0.02 | 0.02 | 0.02 | 88 | 1003.4 |
| 20260830204402 | 61 | 224 | 15.0 | 21.0 | 0.02 | 0.02 | 0.02 | 88 | 1003.4 |
| 20260830204302 | 61 | 224 | 15.0 | 21.0 | 0.02 | 0.02 | 0.02 | 88 | 1003.4 |
| 20260830204223 | 61 | 224 | 15.0 | 21.0 | 0.02 | 0.02 | 0.02 | 88 | 1003.4 |
| 20260830204123 | 61 | 224 | 15.0 | 21.0 | 0.02 | 0.02 | 0.02 | 88 | 1003.4 |
| 20260830204002 | 61 | 224 | 15.0 | 21.0 | 0.02 | 0.02 | 0.02 | 88 | 1003.4 |
| 20260830203902 | 61 | 224 | 15.0 | 21.0 | 0.01 | 0.01 | 0.01 | 88 | 1003.4 |
| 20260830203802 | 61 | 224 | 15.0 | 23.0 | 0.01 | 0.01 | 0.01 | 88 | 1003.4 |
| 20260830203702 | 61 | 223 | 15.0 | 23.0 | 0.01 | 0.01 | 0.01 | 88 | 1003.4 |
| 20260830203602 | 61 | 222 | 15.0 | 23.0 | 0.01 | 0.01 | 0.01 | 88 | 1003.4 |
| 20260830203523 | 61 | 222 | 15.0 | 23.0 | 0.01 | 0.01 | 0.01 | 88 | 1003.4 |
| 20260830203402 | 61 | 221 | 15.0 | 23.0 | 0.01 | 0.01 | 0.01 | 88 | 1003.4 |
| 20260830203302 | 62 | 222 | 15.0 | 23.0 | 0.01 | 0.01 | 0.01 | 88 | 1003.4 |
| 20260830203202 | 62 | 222 | 15.0 | 23.0 | 0.01 | 0.01 | 0.01 | 88 | 1003.4 |
| 20260830203124 | 62 | 222 | 15.0 | 23.0 | 0.01 | 0.01 | 0.01 | 88 | 1003.4 |
| 20260830203002 | 62 | 222 | 15.0 | 23.0 | 0.01 | 0.01 | 0.01 | 88 | 1003.4 |
| 20260830202923 | 62 | 221 | 15.0 | 23.0 | 0.00 | 0.00 | 0.00 | 88 | 1003.4 |
| 20260830202802 | 62 | 221 | 14.0 | 22.0 | 0.00 | 0.00 | 0.00 | 88 | 1003.4 |
| 20260830202702 | 62 | 221 | 14.0 | 22.0 | 0.00 | 0.00 | 0.00 | 88 | 1003.4 |
| 20260830202602 | 62 | 222 | 14.0 | 22.0 | 0.00 | 0.00 | 0.00 | 87 | 1003.4 |
| 20260830202523 | 62 | 222 | 14.0 | 22.0 | 0.00 | 0.00 | 0.00 | 87 | 1003.4 |
| 20260830202402 | 62 | 222 | 13.0 | 22.0 | 0.00 | 0.00 | 0.00 | 87 | 1003.4 |
| 20260830202323 | 62 | 223 | 13.0 | 22.0 | 0.00 | 0.00 | 0.00 | 87 | 1003.4 |
| 20260830202202 | 62 | 223 | 13.0 | 21.0 | 0.00 | 0.00 | 0.00 | 87 | 1003.4 |
| 20260830202102 | 62 | 223 | 13.0 | 21.0 | 0.00 | 0.00 | 0.00 | 87 | 1003.4 |
| 20260830202002 | 62 | 223 | 13.0 | 21.0 | 0.00 | 0.00 | 0.00 | 87 | 1003.4 |
| 20260830201902 | 62 | 223 | 13.0 | 20.0 | 0.00 | 0.00 | 0.00 | 87 | 1003.4 |
| 20260830201823 | 62 | 223 | 13.0 | 19.0 | 0.00 | 0.00 | 0.00 | 87 | 1003.4 |
| 20260830201702 | 62 | 223 | 13.0 | 19.0 | 0.00 | 0.00 | 0.00 | 86 | 1003.4 |
| 20260830201602 | 62 | 223 | 13.0 | 19.0 | 0.00 | 0.00 | 0.00 | 86 | 1003.4 |
| 20260830201523 | 62 | 223 | 13.0 | 19.0 | 0.00 | 0.00 | 0.00 | 86 | 1003.4 |
| 20260830201402 | 62 | 223 | 13.0 | 19.0 | 0.00 | 0.00 | 0.00 | 86 | 1003.4 |
| 20260830201303 | 62 | 222 | 13.0 | 19.0 | 0.00 | 0.00 | 0.00 | 85 | 1003.4 |
| 20260830201202 | 62 | 221 | 13.0 | 19.0 | 0.00 | 0.00 | 0.00 | 85 | 1003.4 |
| 20260830201102 | 62 | 221 | 13.0 | 19.0 | 0.00 | 0.00 | 0.00 | 85 | 1003.4 |
| 20260830201023 | 62 | 220 | 13.0 | 19.0 | 0.00 | 0.00 | 0.00 | 85 | 1003.4 |
| 20260830200902 | 62 | 220 | 12.0 | 19.0 | 0.00 | 0.00 | 0.00 | 85 | 1003.4 |
| 20260830200823 | 62 | 220 | 12.0 | 19.0 | 0.00 | 0.00 | 0.00 | 85 | 1003.4 |
| 20260830200702 | 62 | 220 | 13.0 | 19.0 | 0.00 | 0.00 | 0.00 | 85 | 1003.4 |
| 20260830200623 | 63 | 220 | 13.0 | 19.0 | 0.00 | 0.00 | 0.00 | 85 | 1003.4 |
| 20260830200502 | 63 | 219 | 12.0 | 19.0 | 0.00 | 0.00 | 0.00 | 85 | 1003.4 |
| 20260830200402 | 63 | 218 | 12.0 | 19.0 | 0.00 | 0.00 | 0.00 | 85 | 1003.4 |
| 20260830200302 | 63 | 218 | 12.0 | 19.0 | 0.00 | 0.00 | 0.00 | 84 | 1003.4 |
| 20260830200223 | 63 | 218 | 12.0 | 19.0 | 0.00 | 0.00 | 0.00 | 84 | 1003.4 |
| 20260830200002 | 63 | 216 | 12.0 | 19.0 | 0.00 | 0.00 | 0.00 | 85 | 1003.4 |
| 20260830195902 | 63 | 215 | 12.0 | 19.0 | 0.00 | 0.00 | 0.00 | 85 | 1003.4 |
| 20260830195802 | 63 | 214 | 12.0 | 19.0 | 0.00 | 0.00 | 0.00 | 85 | 1003.4 |
| 20260830195702 | 62 | 211 | 11.0 | 19.0 | 0.00 | 0.00 | 0.00 | 85 | 1003.4 |
| 20260830195602 | 62 | 209 | 11.0 | 15.0 | 0.00 | 0.00 | 0.00 | 85 | 1003.4 |
| 20260830195502 | 62 | 208 | 11.0 | 15.0 | 0.00 | 0.00 | 0.00 | 85 | 1003.4 |
| 20260830195402 | 62 | 207 | 10.0 | 15.0 | 0.00 | 0.00 | 0.00 | 85 | 1003.4 |
| 20260830195305 | 62 | 206 | 10.0 | 15.0 | 0.00 | 0.00 | 0.00 | 85 | 1003.4 |
| 20260830195202 | 62 | 205 | 10.0 | 15.0 | 0.00 | 0.00 | 0.00 | 85 | 1003.4 |
| 20260830195102 | 62 | 204 | 10.0 | 15.0 | 0.00 | 0.00 | 0.00 | 85 | 1003.4 |
| 20260830195002 | 62 | 203 | 10.0 | 15.0 | 0.00 | 0.00 | 0.00 | 85 | 1003.4 |
| 20260830194902 | 62 | 202 | 10.0 | 15.0 | 0.00 | 0.00 | 0.00 | 85 | 1003.4 |
| 20260830194802 | 62 | 202 | 10.0 | 14.0 | 0.00 | 0.00 | 0.00 | 85 | 1003.4 |
| 20260830194702 | 62 | 202 | 10.0 | 14.0 | 0.00 | 0.00 | 0.00 | 85 | 1003.4 |
| 20260830194623 | 62 | 202 | 10.0 | 14.0 | 0.00 | 0.00 | 0.00 | 85 | 1003.4 |
| 20260830194502 | 62 | 202 | 10.0 | 12.0 | 0.00 | 0.00 | 0.00 | 85 | 1003.4 |
| 20260830194402 | 62 | 202 | 9.0 | 12.0 | 0.00 | 0.00 | 0.00 | 85 | 1003.4 |
| 20260830194323 | 62 | 201 | 9.0 | 12.0 | 0.00 | 0.00 | 0.00 | 85 | 1003.4 |
| 20260830194202 | 62 | 200 | 9.0 | 12.0 | 0.00 | 0.00 | 0.00 | 84 | 1003.4 |
| 20260830194102 | 62 | 200 | 9.0 | 12.0 | 0.00 | 0.00 | 0.00 | 84 | 1003.4 |
| 20260830194023 | 62 | 199 | 9.0 | 12.0 | 0.00 | 0.00 | 0.00 | 84 | 1003.4 |
| 20260830193902 | 62 | 199 | 8.0 | 12.0 | 0.00 | 0.00 | 0.00 | 84 | 1003.4 |
| 20260830193802 | 62 | 199 | 8.0 | 12.0 | 0.00 | 0.00 | 0.00 | 84 | 1003.4 |
| 20260830193703 | 62 | 198 | 7.0 | 11.0 | 0.00 | 0.00 | 0.00 | 84 | 1003.4 |
| 20260830193623 | 62 | 197 | 7.0 | 11.0 | 0.00 | 0.00 | 0.00 | 84 | 1003.4 |
| 20260830193502 | 62 | 196 | 7.0 | 11.0 | 0.00 | 0.00 | 0.00 | 84 | 1003.4 |
| 20260830193402 | 62 | 194 | 7.0 | 11.0 | 0.00 | 0.00 | 0.00 | 84 | 1003.4 |
| 20260830193302 | 62 | 193 | 7.0 | 11.0 | 0.00 | 0.00 | 0.00 | 84 | 1003.4 |
| 20260830193202 | 62 | 194 | 7.0 | 11.0 | 0.00 | 0.00 | 0.00 | 84 | 1003.4 |
| 20260830193102 | 62 | 193 | 7.0 | 11.0 | 0.00 | 0.00 | 0.00 | 84 | 1003.4 |
| 20260830193002 | 62 | 192 | 6.0 | 11.0 | 0.00 | 0.00 | 0.00 | 84 | 1003.4 |
| 20260830192903 | 62 | 190 | 7.0 | 11.0 | 0.00 | 0.00 | 0.00 | 84 | 1003.4 |
| 20260830192823 | 62 | 189 | 7.0 | 11.0 | 0.00 | 0.00 | 0.00 | 84 | 1003.4 |
| 20260830192723 | 62 | 188 | 6.0 | 11.0 | 0.00 | 0.00 | 0.00 | 84 | 1003.4 |
| 20260830192602 | 62 | 189 | 6.0 | 11.0 | 0.00 | 0.00 | 0.00 | 84 | 1003.4 |
| 20260830192502 | 62 | 188 | 6.0 | 11.0 | 0.00 | 0.00 | 0.00 | 84 | 1003.4 |
| 20260830192402 | 62 | 188 | 6.0 | 11.0 | 0.00 | 0.00 | 0.00 | 84 | 1003.4 |
| 20260830192323 | 62 | 188 | 6.0 | 10.0 | 0.00 | 0.00 | 0.00 | 84 | 1003.4 |
| 20260830192202 | 62 | 188 | 7.0 | 10.0 | 0.00 | 0.00 | 0.00 | 84 | 1003.4 |
| 20260830192123 | 62 | 189 | 7.0 | 10.0 | 0.00 | 0.00 | 0.00 | 84 | 1003.4 |
| 20260830192002 | 62 | 190 | 7.0 | 10.0 | 0.00 | 0.00 | 0.00 | 84 | 1003.4 |
| 20260830191902 | 62 | 191 | 7.0 | 12.0 | 0.00 | 0.00 | 0.00 | 84 | 1003.4 |
| 20260830191802 | 62 | 193 | 7.0 | 12.0 | 0.00 | 0.00 | 0.00 | 84 | 1003.4 |
| 20260830191702 | 62 | 194 | 7.0 | 12.0 | 0.00 | 0.00 | 0.00 | 84 | 1003.4 |
| 20260830191603 | 62 | 195 | 8.0 | 12.0 | 0.00 | 0.00 | 0.00 | 84 | 1003.4 |
| 20260830191502 | 62 | 197 | 8.0 | 12.0 | 0.00 | 0.01 | 0.00 | 84 | 1003.4 |
| 20260830191402 | 62 | 198 | 8.0 | 12.0 | 0.00 | 0.01 | 0.00 | 84 | 1003.4 |
| 20260830191302 | 62 | 198 | 8.0 | 12.0 | 0.00 | 0.01 | 0.00 | 85 | 1003.4 |
| 20260830191224 | 62 | 199 | 8.0 | 12.0 | 0.00 | 0.01 | 0.00 | 85 | 1003.4 |
| 20260830191102 | 62 | 199 | 9.0 | 12.0 | 0.00 | 0.01 | 0.00 | 85 | 1003.4 |
| 20260830191023 | 62 | 198 | 9.0 | 12.0 | 0.00 | 0.01 | 0.00 | 85 | 1003.4 |
| 20260830190902 | 62 | 199 | 9.0 | 12.0 | 0.00 | 0.01 | 0.00 | 85 | 1003.4 |
| 20260830190802 | 62 | 200 | 9.0 | 12.0 | 0.00 | 0.01 | 0.00 | 85 | 1003.4 |
| 20260830190702 | 62 | 199 | 9.0 | 12.0 | 0.00 | 0.01 | 0.00 | 85 | 1003.4 |
| 20260830190602 | 62 | 197 | 9.0 | 13.0 | 0.00 | 0.01 | 0.00 | 85 | 1003.4 |
| 20260830190523 | 62 | 197 | 9.0 | 13.0 | 0.00 | 0.01 | 0.00 | 85 | 1003.4 |
| 20260830190423 | 62 | 197 | 9.0 | 14.0 | 0.00 | 0.01 | 0.00 | 85 | 1003.4 |
| 20260830190302 | 62 | 196 | 9.0 | 14.0 | 0.00 | 0.01 | 0.00 | 85 | 1003.4 |
| 20260830190202 | 62 | 197 | 9.0 | 14.0 | 0.00 | 0.01 | 0.00 | 85 | 1003.4 |
| 20260830190002 | 62 | 198 | 9.0 | 14.0 | 0.00 | 0.01 | 0.00 | 85 | 1003.4 |
| 20260830185902 | 62 | 198 | 9.0 | 14.0 | 0.00 | 0.01 | 0.00 | 85 | 1003.4 |
| 20260830185802 | 62 | 199 | 9.0 | 14.0 | 0.00 | 0.01 | 0.00 | 85 | 1003.4 |
| 20260830185702 | 62 | 200 | 10.0 | 14.0 | 0.00 | 0.01 | 0.00 | 85 | 1003.4 |
| 20260830185602 | 62 | 201 | 10.0 | 14.0 | 0.00 | 0.01 | 0.00 | 85 | 1003.4 |
| 20260830185523 | 62 | 201 | 10.0 | 14.0 | 0.00 | 0.01 | 0.00 | 85 | 1003.4 |
| 20260830185423 | 62 | 201 | 9.0 | 12.0 | 0.00 | 0.01 | 0.00 | 85 | 1003.4 |
| 20260830185306 | 62 | 202 | 9.0 | 12.0 | 0.00 | 0.01 | 0.00 | 85 | 1003.4 |
| 20260830185202 | 62 | 201 | 9.0 | 12.0 | 0.00 | 0.01 | 0.00 | 85 | 1003.4 |
| 20260830185123 | 62 | 201 | 9.0 | 12.0 | 0.00 | 0.01 | 0.00 | 85 | 1003.4 |
| 20260830185002 | 62 | 199 | 9.0 | 12.0 | 0.00 | 0.01 | 0.00 | 85 | 1003.4 |
| 20260830184902 | 62 | 199 | 9.0 | 12.0 | 0.00 | 0.01 | 0.00 | 85 | 1003.4 |
| 20260830184802 | 63 | 198 | 9.0 | 11.0 | 0.00 | 0.01 | 0.00 | 84 | 1003.4 |
| 20260830184723 | 63 | 197 | 9.0 | 11.0 | 0.00 | 0.01 | 0.00 | 84 | 1003.4 |
| 20260830184602 | 63 | 196 | 9.0 | 11.0 | 0.00 | 0.01 | 0.00 | 84 | 1003.4 |
| 20260830184502 | 63 | 196 | 9.0 | 11.0 | 0.00 | 0.01 | 0.00 | 84 | 1003.4 |
| 20260830184402 | 63 | 196 | 9.0 | 13.0 | 0.00 | 0.01 | 0.00 | 84 | 1003.4 |
| 20260830184302 | 63 | 196 | 9.0 | 13.0 | 0.00 | 0.01 | 0.00 | 84 | 1003.4 |
| 20260830184202 | 63 | 196 | 9.0 | 13.0 | 0.00 | 0.01 | 0.00 | 83 | 1003.4 |
| 20260830184102 | 63 | 196 | 9.0 | 13.0 | 0.00 | 0.01 | 0.00 | 83 | 1003.4 |
| 20260830184023 | 63 | 196 | 9.0 | 13.0 | 0.00 | 0.01 | 0.00 | 83 | 1003.4 |
| 20260830183923 | 63 | 197 | 9.0 | 13.0 | 0.00 | 0.01 | 0.00 | 83 | 1003.4 |
| 20260830183802 | 64 | 197 | 10.0 | 15.0 | 0.00 | 0.01 | 0.00 | 83 | 1003.4 |
| 20260830183702 | 64 | 197 | 11.0 | 16.0 | 0.00 | 0.01 | 0.00 | 82 | 1003.4 |
| 20260830183602 | 64 | 197 | 11.0 | 18.0 | 0.00 | 0.01 | 0.00 | 82 | 1003.4 |
| 20260830183502 | 64 | 197 | 12.0 | 18.0 | 0.00 | 0.01 | 0.00 | 82 | 1003.4 |
| 20260830183402 | 64 | 198 | 13.0 | 21.0 | 0.00 | 0.01 | 0.00 | 82 | 1003.4 |
| 20260830183302 | 64 | 199 | 13.0 | 21.0 | 0.00 | 0.01 | 0.00 | 82 | 1003.4 |
| 20260830183202 | 64 | 199 | 15.0 | 23.0 | 0.00 | 0.01 | 0.00 | 81 | 1003.4 |
| 20260830183102 | 65 | 199 | 16.0 | 25.0 | 0.00 | 0.01 | 0.00 | 81 | 1003.4 |
| 20260830183002 | 65 | 199 | 16.0 | 25.0 | 0.00 | 0.01 | 0.00 | 80 | 1003.4 |
| 20260830182902 | 65 | 198 | 16.0 | 25.0 | 0.00 | 0.01 | 0.00 | 80 | 1003.4 |
| 20260830182802 | 65 | 198 | 16.0 | 25.0 | 0.00 | 0.01 | 0.00 | 79 | 1003.4 |
| 20260830182702 | 66 | 198 | 16.0 | 25.0 | 0.00 | 0.01 | 0.00 | 79 | 1003.4 |
| 20260830182623 | 66 | 198 | 16.0 | 25.0 | 0.00 | 0.01 | 0.00 | 79 | 1003.4 |
| 20260830182502 | 66 | 197 | 15.0 | 25.0 | 0.00 | 0.01 | 0.00 | 77 | 1003.4 |
| 20260830182402 | 67 | 197 | 15.0 | 25.0 | 0.00 | 0.01 | 0.00 | 76 | 1003.4 |
| 20260830182305 | 67 | 196 | 14.0 | 25.0 | 0.00 | 0.01 | 0.00 | 75 | 1003.4 |
| 20260830182202 | 67 | 196 | 13.0 | 25.0 | 0.00 | 0.01 | 0.00 | 75 | 1003.4 |
| 20260830182102 | 67 | 196 | 12.0 | 24.0 | 0.00 | 0.01 | 0.00 | 75 | 1003.4 |
| 20260830182023 | 68 | 195 | 12.0 | 24.0 | 0.00 | 0.01 | 0.00 | 75 | 1003.4 |
| 20260830181902 | 68 | 196 | 12.0 | 19.0 | 0.00 | 0.01 | 0.00 | 74 | 1003.4 |
| 20260830181802 | 68 | 196 | 12.0 | 19.0 | 0.00 | 0.01 | 0.00 | 74 | 1003.4 |
| 20260830181702 | 68 | 197 | 12.0 | 19.0 | 0.00 | 0.01 | 0.00 | 74 | 1003.4 |
| 20260830181602 | 68 | 196 | 12.0 | 19.0 | 0.00 | 0.01 | 0.00 | 74 | 1003.4 |
| 20260830181502 | 68 | 197 | 12.0 | 19.0 | 0.00 | 0.01 | 0.00 | 74 | 1003.4 |
| 20260830181402 | 68 | 197 | 12.0 | 19.0 | 0.00 | 0.01 | 0.00 | 74 | 1003.4 |
| 20260830181303 | 68 | 197 | 11.0 | 19.0 | 0.00 | 0.01 | 0.00 | 74 | 1003.4 |
| 20260830181202 | 68 | 197 | 11.0 | 19.0 | 0.00 | 0.01 | 0.00 | 74 | 1003.4 |
| 20260830181123 | 68 | 198 | 11.0 | 18.0 | 0.00 | 0.01 | 0.00 | 74 | 1003.4 |
| 20260830181023 | 68 | 198 | 12.0 | 18.0 | 0.00 | 0.01 | 0.00 | 74 | 1003.4 |
| 20260830180902 | 68 | 199 | 12.0 | 20.0 | 0.00 | 0.01 | 0.00 | 74 | 1003.4 |
| 20260830180802 | 68 | 199 | 13.0 | 20.0 | 0.00 | 0.01 | 0.00 | 73 | 1003.4 |
| 20260830180702 | 68 | 199 | 13.0 | 20.0 | 0.00 | 0.01 | 0.00 | 73 | 1003.4 |
| 20260830180602 | 68 | 199 | 13.0 | 20.0 | 0.00 | 0.01 | 0.00 | 73 | 1003.4 |
| 20260830180502 | 68 | 199 | 13.0 | 20.0 | 0.00 | 0.01 | 0.00 | 73 | 1003.4 |
| 20260830180402 | 68 | 199 | 13.0 | 20.0 | 0.00 | 0.01 | 0.00 | 73 | 1003.4 |
| 20260830180302 | 68 | 199 | 14.0 | 20.0 | 0.00 | 0.01 | 0.00 | 72 | 1003.4 |
| 20260830180223 | 68 | 199 | 13.0 | 20.0 | 0.00 | 0.01 | 0.00 | 72 | 1003.4 |
| 20260830180002 | 68 | 198 | 13.0 | 20.0 | 0.00 | 0.01 | 0.00 | 73 | 1003.4 |
| 20260830175902 | 68 | 198 | 13.0 | 19.0 | 0.00 | 0.01 | 0.00 | 73 | 1003.4 |
| 20260830175802 | 68 | 197 | 12.0 | 19.0 | 0.00 | 0.01 | 0.00 | 73 | 1003.4 |
| 20260830175702 | 68 | 197 | 12.0 | 19.0 | 0.00 | 0.01 | 0.00 | 72 | 1003.4 |
| 20260830175602 | 68 | 196 | 12.0 | 19.0 | 0.00 | 0.01 | 0.00 | 73 | 1003.4 |
| 20260830175502 | 69 | 196 | 12.0 | 19.0 | 0.00 | 0.01 | 0.00 | 73 | 1003.4 |
| 20260830175402 | 69 | 195 | 12.0 | 19.0 | 0.00 | 0.01 | 0.00 | 72 | 1003.4 |
| 20260830175305 | 69 | 194 | 11.0 | 19.0 | 0.00 | 0.01 | 0.00 | 72 | 1003.4 |
| 20260830175202 | 69 | 194 | 11.0 | 18.0 | 0.00 | 0.01 | 0.00 | 72 | 1003.4 |
| 20260830175123 | 69 | 194 | 11.0 | 16.0 | 0.00 | 0.01 | 0.00 | 72 | 1003.4 |
| 20260830175023 | 69 | 194 | 11.0 | 16.0 | 0.00 | 0.01 | 0.00 | 72 | 1003.4 |
| 20260830174902 | 69 | 194 | 11.0 | 15.0 | 0.00 | 0.01 | 0.00 | 72 | 1003.4 |
| 20260830174802 | 69 | 193 | 11.0 | 15.0 | 0.00 | 0.01 | 0.00 | 72 | 1003.4 |
| 20260830174702 | 69 | 193 | 11.0 | 15.0 | 0.00 | 0.01 | 0.00 | 72 | 1003.4 |
| 20260830174623 | 69 | 193 | 11.0 | 15.0 | 0.00 | 0.01 | 0.00 | 72 | 1003.4 |
| 20260830174502 | 69 | 193 | 11.0 | 16.0 | 0.00 | 0.01 | 0.00 | 72 | 1003.4 |
| 20260830174402 | 69 | 193 | 11.0 | 18.0 | 0.00 | 0.01 | 0.00 | 72 | 1003.4 |
| 20260830174302 | 69 | 192 | 11.0 | 18.0 | 0.00 | 0.01 | 0.00 | 72 | 1003.4 |
| 20260830174202 | 69 | 192 | 11.0 | 18.0 | 0.00 | 0.01 | 0.00 | 72 | 1003.4 |
| 20260830174102 | 69 | 192 | 11.0 | 18.0 | 0.00 | 0.01 | 0.00 | 71 | 1003.4 |
| 20260830174023 | 69 | 192 | 11.0 | 18.0 | 0.00 | 0.01 | 0.00 | 71 | 1003.4 |
| 20260830173902 | 69 | 191 | 10.0 | 18.0 | 0.00 | 0.01 | 0.00 | 71 | 1003.4 |
| 20260830173802 | 69 | 189 | 10.0 | 18.0 | 0.00 | 0.01 | 0.00 | 72 | 1003.4 |
| 20260830173702 | 69 | 189 | 10.0 | 18.0 | 0.00 | 0.01 | 0.00 | 71 | 1003.4 |
| 20260830173602 | 69 | 187 | 9.0 | 18.0 | 0.00 | 0.01 | 0.00 | 71 | 1003.4 |
| 20260830173502 | 69 | 186 | 9.0 | 18.0 | 0.00 | 0.01 | 0.00 | 71 | 1003.4 |
| 20260830173403 | 69 | 186 | 9.0 | 14.0 | 0.00 | 0.01 | 0.00 | 71 | 1003.4 |
| 20260830173302 | 69 | 186 | 8.0 | 14.0 | 0.00 | 0.01 | 0.00 | 71 | 1003.4 |
| 20260830173202 | 69 | 186 | 8.0 | 14.0 | 0.00 | 0.01 | 0.00 | 72 | 1003.4 |
| 20260830173102 | 69 | 187 | 9.0 | 15.0 | 0.00 | 0.02 | 0.00 | 71 | 1003.4 |
| 20260830173002 | 69 | 186 | 9.0 | 15.0 | 0.00 | 0.02 | 0.00 | 71 | 1003.4 |
| 20260830172902 | 69 | 189 | 9.0 | 15.0 | 0.00 | 0.02 | 0.00 | 71 | 1003.4 |
| 20260830172823 | 69 | 190 | 9.0 | 16.0 | 0.00 | 0.02 | 0.00 | 71 | 1003.4 |
| 20260830172702 | 69 | 192 | 10.0 | 16.0 | 0.00 | 0.02 | 0.00 | 71 | 1003.4 |
| 20260830172602 | 69 | 193 | 11.0 | 16.0 | 0.00 | 0.02 | 0.00 | 71 | 1003.4 |
| 20260830172502 | 69 | 194 | 11.0 | 19.0 | 0.00 | 0.02 | 0.00 | 71 | 1003.4 |
| 20260830172403 | 69 | 195 | 12.0 | 19.0 | 0.00 | 0.02 | 0.00 | 71 | 1003.4 |
| 20260830172306 | 69 | 195 | 12.0 | 19.0 | 0.00 | 0.02 | 0.00 | 71 | 1003.4 |
| 20260830172202 | 69 | 195 | 12.0 | 19.0 | 0.00 | 0.02 | 0.00 | 71 | 1003.4 |
| 20260830172102 | 69 | 195 | 12.0 | 19.0 | 0.00 | 0.02 | 0.00 | 71 | 1003.4 |
| 20260830172023 | 69 | 195 | 12.0 | 19.0 | 0.00 | 0.02 | 0.00 | 71 | 1003.4 |
| 20260830171902 | 69 | 193 | 12.0 | 19.0 | 0.00 | 0.02 | 0.00 | 71 | 1003.4 |
| 20260830171802 | 70 | 193 | 12.0 | 19.0 | 0.00 | 0.02 | 0.00 | 71 | 1003.4 |
| 20260830171702 | 70 | 193 | 12.0 | 19.0 | 0.00 | 0.02 | 0.00 | 71 | 1003.4 |
| 20260830171603 | 70 | 194 | 12.0 | 19.0 | 0.00 | 0.02 | 0.00 | 71 | 1003.4 |
| 20260830171502 | 70 | 195 | 12.0 | 19.0 | 0.00 | 0.02 | 0.00 | 70 | 1003.4 |
| 20260830171402 | 70 | 194 | 12.0 | 19.0 | 0.00 | 0.02 | 0.00 | 71 | 1003.4 |
| 20260830171323 | 70 | 194 | 12.0 | 19.0 | 0.00 | 0.02 | 0.00 | 71 | 1003.4 |
| 20260830171223 | 70 | 195 | 12.0 | 19.0 | 0.00 | 0.02 | 0.00 | 71 | 1003.4 |
| 20260830171102 | 70 | 196 | 12.0 | 19.0 | 0.00 | 0.02 | 0.00 | 71 | 1003.4 |
| 20260830171004 | 70 | 196 | 12.0 | 19.0 | 0.00 | 0.02 | 0.00 | 71 | 1003.4 |
| 20260830170902 | 70 | 197 | 12.0 | 19.0 | 0.00 | 0.02 | 0.00 | 71 | 1003.4 |
| 20260830170823 | 70 | 197 | 12.0 | 19.0 | 0.00 | 0.02 | 0.00 | 71 | 1003.4 |
| 20260830170703 | 70 | 197 | 13.0 | 19.0 | 0.00 | 0.02 | 0.00 | 72 | 1003.4 |
| 20260830170602 | 70 | 196 | 12.0 | 19.0 | 0.00 | 0.02 | 0.00 | 71 | 1003.4 |
| 20260830170502 | 70 | 195 | 12.0 | 19.0 | 0.00 | 0.02 | 0.00 | 71 | 1003.4 |
| 20260830170423 | 70 | 195 | 12.0 | 19.0 | 0.00 | 0.02 | 0.00 | 71 | 1003.4 |
| 20260830170323 | 70 | 194 | 11.0 | 18.0 | 0.00 | 0.02 | 0.00 | 72 | 1003.4 |
| 20260830170202 | 70 | 192 | 11.0 | 18.0 | 0.00 | 0.02 | 0.00 | 71 | 1003.4 |
| 20260830170124 | 70 | 191 | 11.0 | 18.0 | 0.00 | 0.02 | 0.00 | 71 | 1003.4 |
| 20260830170002 | 70 | 189 | 10.0 | 18.0 | 0.00 | 0.02 | 0.00 | 71 | 1003.4 |
| 20260830165902 | 70 | 188 | 10.0 | 18.0 | 0.00 | 0.02 | 0.00 | 70 | 1003.4 |
| 20260830165802 | 70 | 186 | 9.0 | 18.0 | 0.00 | 0.02 | 0.00 | 70 | 1003.4 |
| 20260830165702 | 70 | 184 | 9.0 | 15.0 | 0.00 | 0.02 | 0.00 | 70 | 1003.4 |
| 20260830165602 | 70 | 183 | 8.0 | 13.0 | 0.00 | 0.02 | 0.00 | 70 | 1003.4 |
| 20260830165502 | 70 | 181 | 9.0 | 13.0 | 0.00 | 0.02 | 0.00 | 69 | 1003.4 |
| 20260830165403 | 70 | 181 | 9.0 | 13.0 | 0.00 | 0.02 | 0.00 | 69 | 1003.4 |
| 20260830165305 | 70 | 180 | 9.0 | 13.0 | 0.00 | 0.02 | 0.00 | 68 | 1003.4 |
| 20260830165223 | 70 | 180 | 9.0 | 14.0 | 0.00 | 0.02 | 0.00 | 68 | 1003.4 |
| 20260830165102 | 70 | 180 | 9.0 | 16.0 | 0.00 | 0.02 | 0.00 | 68 | 1003.4 |
| 20260830165002 | 70 | 181 | 10.0 | 16.0 | 0.00 | 0.02 | 0.00 | 68 | 1003.4 |
| 20260830164902 | 70 | 183 | 11.0 | 20.0 | 0.00 | 0.02 | 0.00 | 68 | 1003.4 |
| 20260830164802 | 70 | 186 | 11.0 | 22.0 | 0.00 | 0.02 | 0.00 | 67 | 1003.4 |
| 20260830164723 | 70 | 186 | 11.0 | 22.0 | 0.00 | 0.02 | 0.00 | 67 | 1003.4 |
| 20260830164602 | 70 | 189 | 12.0 | 22.0 | 0.00 | 0.02 | 0.00 | 66 | 1003.4 |
| 20260830164502 | 71 | 191 | 12.0 | 22.0 | 0.00 | 0.02 | 0.00 | 66 | 1003.4 |
| 20260830164402 | 71 | 192 | 13.0 | 22.0 | 0.00 | 0.02 | 0.00 | 66 | 1003.4 |
| 20260830164302 | 71 | 193 | 13.0 | 22.0 | 0.00 | 0.02 | 0.00 | 66 | 1003.4 |
| 20260830164202 | 71 | 194 | 12.0 | 22.0 | 0.00 | 0.02 | 0.00 | 66 | 1003.4 |
| 20260830164103 | 71 | 195 | 12.0 | 22.0 | 0.00 | 0.02 | 0.00 | 66 | 1003.4 |
| 20260830164002 | 71 | 196 | 11.0 | 22.0 | 0.00 | 0.02 | 0.00 | 66 | 1003.4 |
| 20260830163902 | 71 | 196 | 11.0 | 22.0 | 0.00 | 0.02 | 0.00 | 66 | 1003.4 |
| 20260830163802 | 71 | 194 | 10.0 | 18.0 | 0.00 | 0.02 | 0.00 | 66 | 1003.4 |
| 20260830163704 | 71 | 194 | 10.0 | 16.0 | 0.00 | 0.02 | 0.00 | 65 | 1003.4 |
| 20260830163602 | 72 | 193 | 9.0 | 16.0 | 0.00 | 0.02 | 0.00 | 65 | 1003.4 |
| 20260830163523 | 72 | 193 | 9.0 | 14.0 | 0.00 | 0.02 | 0.00 | 65 | 1003.4 |
| 20260830163402 | 72 | 197 | 10.0 | 15.0 | 0.00 | 0.02 | 0.00 | 64 | 1003.4 |
| 20260830163302 | 72 | 197 | 10.0 | 15.0 | 0.00 | 0.02 | 0.00 | 64 | 1003.4 |
| 20260830163202 | 72 | 199 | 11.0 | 18.0 | 0.00 | 0.02 | 0.00 | 64 | 1003.4 |
| 20260830163123 | 72 | 200 | 11.0 | 18.0 | 0.00 | 0.02 | 0.00 | 64 | 1003.4 |
| 20260830163002 | 72 | 201 | 11.0 | 18.0 | 0.00 | 0.02 | 0.00 | 64 | 1003.4 |
| 20260830162902 | 72 | 202 | 11.0 | 18.0 | 0.00 | 0.02 | 0.00 | 64 | 1003.4 |
| 20260830162803 | 72 | 204 | 11.0 | 18.0 | 0.00 | 0.02 | 0.00 | 64 | 1003.4 |
| 20260830162702 | 72 | 204 | 11.0 | 18.0 | 0.00 | 0.02 | 0.00 | 64 | 1003.4 |
| 20260830162602 | 72 | 204 | 11.0 | 18.0 | 0.00 | 0.02 | 0.00 | 64 | 1003.4 |
| 20260830162502 | 72 | 204 | 10.0 | 18.0 | 0.00 | 0.02 | 0.00 | 63 | 1003.4 |
| 20260830162402 | 72 | 201 | 9.0 | 18.0 | 0.00 | 0.02 | 0.00 | 63 | 1003.4 |
| 20260830162305 | 72 | 200 | 8.0 | 18.0 | 0.00 | 0.02 | 0.00 | 64 | 1003.4 |
| 20260830162202 | 72 | 198 | 8.0 | 15.0 | 0.00 | 0.02 | 0.00 | 65 | 1003.4 |
| 20260830162102 | 72 | 196 | 7.0 | 12.0 | 0.00 | 0.02 | 0.00 | 66 | 1003.4 |
| 20260830162002 | 72 | 194 | 7.0 | 12.0 | 0.00 | 0.02 | 0.00 | 67 | 1003.4 |
| 20260830161902 | 72 | 192 | 7.0 | 12.0 | 0.00 | 0.02 | 0.00 | 66 | 1003.4 |
| 20260830161803 | 72 | 190 | 7.0 | 12.0 | 0.00 | 0.02 | 0.00 | 66 | 1003.4 |
| 20260830161702 | 72 | 191 | 7.0 | 13.0 | 0.00 | 0.02 | 0.00 | 67 | 1003.4 |
| 20260830161602 | 71 | 192 | 8.0 | 13.0 | 0.00 | 0.02 | 0.00 | 66 | 1003.4 |
| 20260830161523 | 71 | 192 | 8.0 | 13.0 | 0.00 | 0.02 | 0.00 | 66 | 1003.4 |
| 20260830161423 | 71 | 193 | 8.0 | 14.0 | 0.00 | 0.02 | 0.00 | 66 | 1003.4 |
| 20260830161302 | 71 | 195 | 9.0 | 16.0 | 0.00 | 0.02 | 0.00 | 66 | 1003.4 |
| 20260830161202 | 71 | 197 | 9.0 | 16.0 | 0.00 | 0.02 | 0.00 | 66 | 1003.4 |
| 20260830161123 | 71 | 198 | 9.0 | 16.0 | 0.00 | 0.02 | 0.00 | 66 | 1003.4 |
| 20260830161002 | 71 | 198 | 10.0 | 16.0 | 0.00 | 0.02 | 0.00 | 66 | 1003.4 |
| 20260830160923 | 71 | 198 | 10.0 | 16.0 | 0.00 | 0.02 | 0.00 | 66 | 1003.4 |
| 20260830160802 | 71 | 199 | 9.0 | 16.0 | 0.00 | 0.02 | 0.00 | 66 | 1003.4 |
| 20260830160702 | 71 | 198 | 9.0 | 16.0 | 0.00 | 0.02 | 0.00 | 66 | 1003.4 |
| 20260830160623 | 71 | 199 | 9.0 | 16.0 | 0.00 | 0.02 | 0.00 | 66 | 1003.4 |
| 20260830160502 | 71 | 198 | 9.0 | 16.0 | 0.00 | 0.02 | 0.00 | 66 | 1003.4 |
| 20260830160423 | 71 | 199 | 9.0 | 16.0 | 0.00 | 0.02 | 0.00 | 66 | 1003.4 |
| 20260830160302 | 71 | 200 | 8.0 | 12.0 | 0.00 | 0.02 | 0.00 | 67 | 1003.4 |
| 20260830160202 | 71 | 199 | 8.0 | 12.0 | 0.00 | 0.02 | 0.00 | 67 | 1003.4 |
| 20260830160003 | 71 | 200 | 8.0 | 12.0 | 0.00 | 0.02 | 0.00 | 69 | 1003.4 |
| 20260830155902 | 71 | 202 | 9.0 | 12.0 | 0.00 | 0.02 | 0.00 | 68 | 1003.4 |
| 20260830155804 | 71 | 202 | 9.0 | 12.0 | 0.00 | 0.02 | 0.00 | 68 | 1003.4 |
| 20260830155702 | 71 | 202 | 9.0 | 12.0 | 0.00 | 0.02 | 0.00 | 68 | 1003.4 |
| 20260830155602 | 71 | 201 | 9.0 | 12.0 | 0.00 | 0.02 | 0.00 | 67 | 1003.4 |
| 20260830155503 | 71 | 200 | 9.0 | 12.0 | 0.00 | 0.02 | 0.00 | 68 | 1003.4 |
| 20260830155402 | 71 | 199 | 9.0 | 12.0 | 0.00 | 0.02 | 0.00 | 68 | 1003.4 |
| 20260830155323 | 71 | 198 | 9.0 | 13.0 | 0.00 | 0.02 | 0.00 | 68 | 1003.4 |
| 20260830155202 | 71 | 196 | 8.0 | 13.0 | 0.00 | 0.02 | 0.00 | 68 | 1003.4 |
| 20260830155123 | 71 | 195 | 8.0 | 13.0 | 0.00 | 0.02 | 0.00 | 68 | 1003.4 |
| 20260830155023 | 71 | 194 | 8.0 | 13.0 | 0.00 | 0.02 | 0.00 | 68 | 1003.4 |
| 20260830154903 | 71 | 193 | 8.0 | 13.0 | 0.00 | 0.02 | 0.00 | 68 | 1003.4 |
| 20260830154802 | 71 | 191 | 8.0 | 13.0 | 0.00 | 0.02 | 0.00 | 67 | 1003.4 |
| 20260830154702 | 71 | 192 | 8.0 | 13.0 | 0.00 | 0.02 | 0.00 | 67 | 1003.4 |
| 20260830154602 | 71 | 193 | 9.0 | 13.0 | 0.00 | 0.02 | 0.00 | 66 | 1003.4 |
| 20260830154502 | 71 | 194 | 8.0 | 13.0 | 0.00 | 0.02 | 0.00 | 66 | 1003.4 |
| 20260830154402 | 71 | 195 | 8.0 | 13.0 | 0.00 | 0.02 | 0.00 | 67 | 1003.4 |
| 20260830154302 | 71 | 195 | 8.0 | 12.0 | 0.00 | 0.02 | 0.00 | 68 | 1003.4 |
| 20260830154202 | 71 | 196 | 8.0 | 12.0 | 0.00 | 0.02 | 0.00 | 68 | 1003.4 |
| 20260830154102 | 71 | 197 | 8.0 | 12.0 | 0.00 | 0.02 | 0.00 | 68 | 1003.4 |
| 20260830154002 | 71 | 198 | 8.0 | 12.0 | 0.00 | 0.02 | 0.00 | 68 | 1003.4 |
| 20260830153902 | 71 | 198 | 8.0 | 12.0 | 0.00 | 0.02 | 0.00 | 68 | 1003.4 |
| 20260830153823 | 71 | 199 | 8.0 | 11.0 | 0.00 | 0.02 | 0.00 | 68 | 1003.4 |
| 20260830153702 | 71 | 199 | 8.0 | 11.0 | 0.00 | 0.02 | 0.00 | 69 | 1003.4 |
| 20260830153602 | 71 | 198 | 8.0 | 12.0 | 0.00 | 0.02 | 0.00 | 69 | 1003.4 |
| 20260830153523 | 71 | 198 | 8.0 | 14.0 | 0.00 | 0.02 | 0.00 | 69 | 1003.4 |
| 20260830153423 | 71 | 197 | 8.0 | 14.0 | 0.00 | 0.02 | 0.00 | 69 | 1003.4 |
| 20260830153302 | 71 | 196 | 9.0 | 14.0 | 0.00 | 0.02 | 0.00 | 68 | 1003.4 |
| 20260830153224 | 71 | 196 | 9.0 | 14.0 | 0.00 | 0.02 | 0.00 | 68 | 1003.4 |
| 20260830153102 | 71 | 197 | 10.0 | 14.0 | 0.00 | 0.02 | 0.00 | 67 | 1003.4 |
| 20260830153002 | 71 | 197 | 10.0 | 14.0 | 0.00 | 0.02 | 0.00 | 68 | 1003.4 |
| 20260830152923 | 71 | 197 | 10.0 | 14.0 | 0.00 | 0.02 | 0.00 | 68 | 1003.4 |
| 20260830152802 | 71 | 199 | 10.0 | 14.0 | 0.00 | 0.02 | 0.00 | 67 | 1003.4 |
| 20260830152723 | 71 | 198 | 10.0 | 14.0 | 0.00 | 0.02 | 0.00 | 67 | 1003.4 |
| 20260830152602 | 71 | 199 | 10.0 | 14.0 | 0.00 | 0.02 | 0.00 | 67 | 1003.4 |
| 20260830152502 | 71 | 200 | 10.0 | 14.0 | 0.00 | 0.02 | 0.00 | 67 | 1003.4 |
| 20260830152402 | 71 | 200 | 10.0 | 14.0 | 0.00 | 0.02 | 0.00 | 68 | 1003.4 |
| 20260830152305 | 71 | 200 | 9.0 | 14.0 | 0.00 | 0.02 | 0.00 | 67 | 1003.4 |
| 20260830152202 | 71 | 200 | 9.0 | 14.0 | 0.00 | 0.02 | 0.00 | 67 | 1003.4 |
| 20260830152123 | 71 | 199 | 9.0 | 14.0 | 0.00 | 0.02 | 0.00 | 67 | 1003.4 |
| 20260830152003 | 71 | 198 | 9.0 | 14.0 | 0.00 | 0.02 | 0.00 | 67 | 1003.4 |
| 20260830151923 | 71 | 198 | 9.0 | 13.0 | 0.00 | 0.02 | 0.00 | 67 | 1003.4 |
| 20260830151802 | 71 | 198 | 8.0 | 13.0 | 0.00 | 0.02 | 0.00 | 68 | 1003.4 |
| 20260830151702 | 71 | 200 | 8.0 | 13.0 | 0.00 | 0.02 | 0.00 | 67 | 1003.4 |
| 20260830151623 | 71 | 200 | 8.0 | 13.0 | 0.00 | 0.02 | 0.00 | 67 | 1003.4 |
| 20260830151502 | 71 | 201 | 9.0 | 13.0 | 0.00 | 0.02 | 0.00 | 68 | 1003.4 |
| 20260830151402 | 71 | 202 | 9.0 | 13.0 | 0.00 | 0.02 | 0.00 | 68 | 1003.4 |
| 20260830151302 | 71 | 203 | 9.0 | 13.0 | 0.00 | 0.02 | 0.00 | 68 | 1003.4 |
| 20260830151202 | 71 | 203 | 9.0 | 13.0 | 0.00 | 0.02 | 0.00 | 69 | 1003.4 |
| 20260830151123 | 71 | 205 | 9.0 | 13.0 | 0.00 | 0.02 | 0.00 | 69 | 1003.4 |
| 20260830151002 | 71 | 207 | 9.0 | 13.0 | 0.00 | 0.02 | 0.00 | 69 | 1003.4 |
| 20260830150902 | 71 | 207 | 9.0 | 12.0 | 0.00 | 0.02 | 0.00 | 67 | 1003.4 |
| 20260830150802 | 71 | 207 | 9.0 | 12.0 | 0.00 | 0.02 | 0.00 | 67 | 1003.4 |
| 20260830150702 | 71 | 207 | 8.0 | 12.0 | 0.00 | 0.02 | 0.00 | 68 | 1003.4 |
| 20260830150602 | 71 | 206 | 8.0 | 12.0 | 0.00 | 0.02 | 0.00 | 67 | 1003.4 |
| 20260830150502 | 71 | 206 | 8.0 | 12.0 | 0.00 | 0.02 | 0.00 | 68 | 1003.4 |
| 20260830150402 | 71 | 206 | 8.0 | 12.0 | 0.00 | 0.02 | 0.00 | 68 | 1003.4 |
| 20260830150302 | 71 | 207 | 9.0 | 12.0 | 0.00 | 0.02 | 0.00 | 68 | 1003.4 |
| 20260830150202 | 71 | 208 | 9.0 | 13.0 | 0.00 | 0.02 | 0.00 | 68 | 1003.4 |
| 20260830150123 | 71 | 208 | 9.0 | 14.0 | 0.00 | 0.02 | 0.00 | 68 | 1003.4 |
| 20260830150003 | 71 | 209 | 9.0 | 14.0 | 0.00 | 0.02 | 0.00 | 66 | 1003.4 |
| 20260830145902 | 71 | 211 | 10.0 | 14.0 | 0.00 | 0.02 | 0.00 | 67 | 1003.4 |
| 20260830145823 | 71 | 211 | 10.0 | 14.0 | 0.00 | 0.02 | 0.00 | 67 | 1003.4 |
| 20260830145702 | 71 | 214 | 10.0 | 14.0 | 0.00 | 0.02 | 0.00 | 68 | 1003.4 |
| 20260830145602 | 71 | 217 | 10.0 | 14.0 | 0.00 | 0.02 | 0.00 | 67 | 1003.4 |
| 20260830145502 | 71 | 219 | 10.0 | 14.0 | 0.00 | 0.02 | 0.00 | 67 | 1003.4 |
| 20260830145402 | 71 | 221 | 10.0 | 14.0 | 0.00 | 0.02 | 0.00 | 68 | 1003.4 |
| 20260830145323 | 71 | 222 | 10.0 | 14.0 | 0.00 | 0.02 | 0.00 | 68 | 1003.4 |
| 20260830145202 | 71 | 225 | 10.0 | 14.0 | 0.00 | 0.02 | 0.00 | 67 | 1003.4 |
| 20260830145102 | 71 | 227 | 10.0 | 14.0 | 0.00 | 0.02 | 0.00 | 67 | 1003.4 |
| 20260830145002 | 71 | 228 | 10.0 | 14.0 | 0.00 | 0.02 | 0.00 | 66 | 1003.4 |
| 20260830144902 | 71 | 228 | 10.0 | 14.0 | 0.00 | 0.02 | 0.00 | 67 | 1003.4 |
| 20260830144802 | 71 | 229 | 10.0 | 14.0 | 0.00 | 0.02 | 0.00 | 67 | 1003.4 |
| 20260830144723 | 71 | 228 | 10.0 | 14.0 | 0.00 | 0.02 | 0.00 | 67 | 1003.4 |
| 20260830144602 | 70 | 226 | 11.0 | 15.0 | 0.00 | 0.02 | 0.00 | 67 | 1003.4 |
| 20260830144502 | 70 | 226 | 11.0 | 16.0 | 0.00 | 0.02 | 0.00 | 67 | 1003.4 |
| 20260830144402 | 70 | 225 | 11.0 | 16.0 | 0.00 | 0.02 | 0.00 | 66 | 1003.4 |
| 20260830144302 | 70 | 224 | 12.0 | 16.0 | 0.00 | 0.02 | 0.00 | 66 | 1003.4 |
| 20260830144202 | 70 | 223 | 12.0 | 16.0 | 0.00 | 0.02 | 0.00 | 67 | 1003.4 |
| 20260830144103 | 70 | 222 | 12.0 | 16.0 | 0.00 | 0.02 | 0.00 | 66 | 1003.4 |
| 20260830144002 | 70 | 222 | 12.0 | 16.0 | 0.00 | 0.02 | 0.00 | 67 | 1003.4 |
| 20260830143923 | 70 | 223 | 12.0 | 16.0 | 0.00 | 0.02 | 0.00 | 67 | 1003.4 |
| 20260830143803 | 70 | 225 | 12.0 | 16.0 | 0.00 | 0.02 | 0.00 | 67 | 1003.4 |
| 20260830143702 | 70 | 227 | 12.0 | 16.0 | 0.00 | 0.02 | 0.00 | 67 | 1003.4 |
| 20260830143604 | 70 | 228 | 12.0 | 16.0 | 0.00 | 0.02 | 0.00 | 67 | 1003.4 |
| 20260830143502 | 70 | 228 | 11.0 | 18.0 | 0.00 | 0.02 | 0.00 | 67 | 1003.4 |
| 20260830143423 | 71 | 228 | 11.0 | 18.0 | 0.00 | 0.02 | 0.00 | 67 | 1003.4 |
| 20260830143302 | 71 | 226 | 11.0 | 18.0 | 0.00 | 0.02 | 0.00 | 68 | 1003.4 |
| 20260830143223 | 71 | 226 | 11.0 | 18.0 | 0.00 | 0.02 | 0.00 | 68 | 1003.4 |
| 20260830143102 | 70 | 224 | 11.0 | 18.0 | 0.00 | 0.02 | 0.00 | 68 | 1003.4 |
| 20260830143023 | 70 | 223 | 11.0 | 18.0 | 0.00 | 0.02 | 0.00 | 68 | 1003.4 |
| 20260830142902 | 70 | 221 | 11.0 | 18.0 | 0.00 | 0.02 | 0.00 | 67 | 1003.4 |
| 20260830142802 | 70 | 219 | 11.0 | 18.0 | 0.00 | 0.02 | 0.00 | 67 | 1003.4 |
| 20260830142702 | 70 | 218 | 11.0 | 18.0 | 0.00 | 0.02 | 0.00 | 69 | 1003.4 |
| 20260830142602 | 70 | 217 | 11.0 | 18.0 | 0.00 | 0.02 | 0.00 | 69 | 1003.4 |
| 20260830142502 | 70 | 216 | 11.0 | 15.0 | 0.00 | 0.02 | 0.00 | 69 | 1003.4 |
| 20260830142402 | 70 | 216 | 11.0 | 15.0 | 0.00 | 0.02 | 0.00 | 69 | 1003.4 |
| 20260830142323 | 70 | 218 | 11.0 | 15.0 | 0.00 | 0.02 | 0.00 | 69 | 1003.4 |
| 20260830142202 | 70 | 219 | 11.0 | 15.0 | 0.00 | 0.02 | 0.00 | 69 | 1003.4 |
| 20260830142102 | 70 | 219 | 11.0 | 15.0 | 0.00 | 0.02 | 0.00 | 68 | 1003.4 |
| 20260830142002 | 70 | 219 | 12.0 | 15.0 | 0.00 | 0.02 | 0.00 | 69 | 1003.4 |
| 20260830141902 | 70 | 220 | 12.0 | 15.0 | 0.00 | 0.02 | 0.00 | 69 | 1003.4 |
| 20260830141802 | 70 | 220 | 12.0 | 15.0 | 0.00 | 0.02 | 0.00 | 68 | 1003.4 |
| 20260830141702 | 70 | 220 | 12.0 | 15.0 | 0.00 | 0.02 | 0.00 | 69 | 1003.4 |
| 20260830141602 | 70 | 219 | 12.0 | 15.0 | 0.00 | 0.02 | 0.00 | 69 | 1003.4 |
| 20260830141502 | 70 | 220 | 12.0 | 18.0 | 0.00 | 0.02 | 0.00 | 70 | 1003.4 |
| 20260830141402 | 70 | 221 | 12.0 | 18.0 | 0.00 | 0.02 | 0.00 | 69 | 1003.4 |
| 20260830141323 | 70 | 220 | 12.0 | 18.0 | 0.00 | 0.02 | 0.00 | 69 | 1003.4 |
| 20260830141202 | 70 | 223 | 12.0 | 18.0 | 0.00 | 0.02 | 0.00 | 69 | 1003.4 |
| 20260830141102 | 70 | 224 | 12.0 | 18.0 | 0.00 | 0.02 | 0.00 | 69 | 1003.4 |
| 20260830141002 | 70 | 224 | 12.0 | 18.0 | 0.00 | 0.02 | 0.00 | 68 | 1003.4 |
| 20260830140902 | 70 | 224 | 12.0 | 18.0 | 0.00 | 0.02 | 0.00 | 69 | 1003.4 |
| 20260830140802 | 70 | 224 | 12.0 | 18.0 | 0.00 | 0.02 | 0.00 | 70 | 1003.4 |
| 20260830140702 | 70 | 224 | 12.0 | 18.0 | 0.00 | 0.02 | 0.00 | 69 | 1003.4 |
| 20260830140602 | 70 | 222 | 12.0 | 18.0 | 0.00 | 0.02 | 0.00 | 69 | 1003.4 |
| 20260830140523 | 70 | 222 | 12.0 | 18.0 | 0.00 | 0.02 | 0.00 | 69 | 1003.4 |
| 20260830140402 | 70 | 223 | 12.0 | 19.0 | 0.00 | 0.02 | 0.00 | 69 | 1003.4 |
| 20260830140302 | 70 | 223 | 12.0 | 19.0 | 0.00 | 0.02 | 0.00 | 70 | 1003.4 |
| 20260830140202 | 70 | 222 | 13.0 | 19.0 | 0.00 | 0.02 | 0.00 | 70 | 1003.4 |
| 20260830140002 | 70 | 222 | 13.0 | 19.0 | 0.00 | 0.02 | 0.00 | 70 | 1003.4 |
| 20260830135902 | 70 | 221 | 13.0 | 19.0 | 0.00 | 0.02 | 0.00 | 69 | 1003.4 |
| 20260830135823 | 70 | 222 | 13.0 | 19.0 | 0.00 | 0.02 | 0.00 | 69 | 1003.4 |
| 20260830135725 | 70 | 222 | 14.0 | 20.0 | 0.00 | 0.02 | 0.00 | 70 | 1003.4 |
| 20260830135602 | 70 | 222 | 14.0 | 21.0 | 0.00 | 0.02 | 0.00 | 69 | 1003.4 |
| 20260830135502 | 70 | 222 | 14.0 | 21.0 | 0.00 | 0.02 | 0.00 | 69 | 1003.4 |
| 20260830135402 | 70 | 223 | 14.0 | 21.0 | 0.00 | 0.02 | 0.00 | 69 | 1003.4 |
| 20260830135306 | 70 | 224 | 14.0 | 21.0 | 0.00 | 0.02 | 0.00 | 68 | 1003.4 |
| 20260830135202 | 70 | 225 | 14.0 | 21.0 | 0.00 | 0.02 | 0.00 | 70 | 1003.4 |
| 20260830135102 | 70 | 224 | 14.0 | 21.0 | 0.00 | 0.02 | 0.00 | 69 | 1003.4 |
| 20260830135002 | 70 | 226 | 14.0 | 21.0 | 0.00 | 0.02 | 0.00 | 69 | 1003.4 |
| 20260830134923 | 70 | 226 | 14.0 | 21.0 | 0.00 | 0.02 | 0.00 | 69 | 1003.4 |
| 20260830134802 | 70 | 225 | 13.0 | 21.0 | 0.00 | 0.02 | 0.00 | 69 | 1003.4 |
| 20260830134702 | 70 | 224 | 13.0 | 19.0 | 0.00 | 0.02 | 0.00 | 69 | 1003.4 |
| 20260830134623 | 70 | 224 | 13.0 | 19.0 | 0.00 | 0.02 | 0.00 | 69 | 1003.4 |
| 20260830134502 | 70 | 222 | 13.0 | 19.0 | 0.00 | 0.02 | 0.00 | 69 | 1003.4 |
| 20260830134402 | 70 | 218 | 13.0 | 19.0 | 0.00 | 0.02 | 0.00 | 70 | 1003.4 |
| 20260830134302 | 70 | 216 | 12.0 | 19.0 | 0.00 | 0.02 | 0.00 | 69 | 1003.4 |
| 20260830134223 | 70 | 215 | 12.0 | 19.0 | 0.00 | 0.02 | 0.00 | 69 | 1003.4 |
| 20260830134102 | 70 | 214 | 13.0 | 19.0 | 0.00 | 0.02 | 0.00 | 70 | 1003.4 |
| 20260830134023 | 70 | 213 | 13.0 | 19.0 | 0.00 | 0.02 | 0.00 | 70 | 1003.4 |
| 20260830133902 | 70 | 212 | 12.0 | 16.0 | 0.00 | 0.02 | 0.00 | 69 | 1003.4 |
| 20260830133802 | 70 | 212 | 13.0 | 16.0 | 0.00 | 0.03 | 0.00 | 69 | 1003.4 |
| 20260830133702 | 70 | 213 | 13.0 | 16.0 | 0.00 | 0.03 | 0.00 | 69 | 1003.4 |
| 20260830133602 | 70 | 213 | 13.0 | 18.0 | 0.00 | 0.03 | 0.00 | 69 | 1003.4 |
| 20260830133523 | 70 | 214 | 13.0 | 18.0 | 0.00 | 0.03 | 0.00 | 69 | 1003.4 |
| 20260830133402 | 70 | 215 | 13.0 | 18.0 | 0.00 | 0.03 | 0.00 | 69 | 1003.4 |
| 20260830133302 | 70 | 215 | 13.0 | 18.0 | 0.00 | 0.03 | 0.00 | 69 | 1003.4 |
| 20260830133223 | 70 | 214 | 13.0 | 18.0 | 0.00 | 0.03 | 0.00 | 69 | 1003.4 |
| 20260830133102 | 70 | 213 | 13.0 | 18.0 | 0.00 | 0.03 | 0.00 | 70 | 1003.4 |
| 20260830133004 | 70 | 212 | 13.0 | 18.0 | 0.00 | 0.03 | 0.00 | 69 | 1003.4 |
| 20260830132902 | 70 | 212 | 14.0 | 18.0 | 0.00 | 0.03 | 0.00 | 69 | 1003.4 |
| 20260830132802 | 70 | 214 | 13.0 | 18.0 | 0.00 | 0.03 | 0.00 | 69 | 1003.4 |
| 20260830132702 | 70 | 214 | 13.0 | 18.0 | 0.00 | 0.03 | 0.00 | 69 | 1003.4 |
| 20260830132623 | 70 | 213 | 13.0 | 18.0 | 0.00 | 0.03 | 0.00 | 69 | 1003.4 |
| 20260830132523 | 70 | 213 | 13.0 | 18.0 | 0.00 | 0.03 | 0.00 | 69 | 1003.4 |
| 20260830132423 | 70 | 214 | 13.0 | 18.0 | 0.00 | 0.03 | 0.00 | 69 | 1003.4 |
| 20260830132305 | 70 | 215 | 13.0 | 19.0 | 0.00 | 0.03 | 0.00 | 69 | 1003.4 |
| 20260830132202 | 70 | 215 | 13.0 | 19.0 | 0.00 | 0.03 | 0.00 | 69 | 1003.4 |
| 20260830132102 | 70 | 215 | 13.0 | 19.0 | 0.00 | 0.03 | 0.00 | 70 | 1003.4 |
| 20260830132002 | 70 | 215 | 13.0 | 19.0 | 0.00 | 0.03 | 0.00 | 70 | 1003.4 |
| 20260830131903 | 70 | 214 | 12.0 | 19.0 | 0.00 | 0.03 | 0.00 | 71 | 1003.4 |
| 20260830131802 | 70 | 212 | 13.0 | 19.0 | 0.00 | 0.03 | 0.00 | 71 | 1003.4 |
| 20260830131702 | 70 | 214 | 13.0 | 19.0 | 0.00 | 0.03 | 0.00 | 70 | 1003.4 |
| 20260830131602 | 70 | 214 | 13.0 | 19.0 | 0.00 | 0.03 | 0.00 | 69 | 1003.4 |
| 20260830131502 | 70 | 212 | 12.0 | 19.0 | 0.00 | 0.03 | 0.00 | 69 | 1003.4 |
| 20260830131423 | 70 | 211 | 12.0 | 19.0 | 0.00 | 0.03 | 0.00 | 69 | 1003.4 |
| 20260830131323 | 70 | 209 | 12.0 | 19.0 | 0.00 | 0.03 | 0.00 | 70 | 1003.4 |
| 20260830131202 | 70 | 206 | 11.0 | 18.0 | 0.00 | 0.03 | 0.00 | 70 | 1003.4 |
| 20260830131102 | 70 | 205 | 11.0 | 16.0 | 0.00 | 0.03 | 0.00 | 70 | 1003.4 |
| 20260830131002 | 70 | 205 | 11.0 | 15.0 | 0.00 | 0.03 | 0.00 | 69 | 1003.4 |
| 20260830130902 | 70 | 204 | 11.0 | 15.0 | 0.00 | 0.03 | 0.00 | 69 | 1003.4 |
| 20260830130802 | 70 | 204 | 10.0 | 15.0 | 0.00 | 0.03 | 0.00 | 69 | 1003.4 |
| 20260830130702 | 70 | 204 | 10.0 | 14.0 | 0.00 | 0.03 | 0.00 | 70 | 1003.4 |
| 20260830130602 | 70 | 202 | 10.0 | 14.0 | 0.00 | 0.03 | 0.00 | 70 | 1003.4 |
| 20260830130502 | 70 | 201 | 10.0 | 14.0 | 0.00 | 0.03 | 0.00 | 71 | 1003.4 |
| 20260830130402 | 70 | 202 | 10.0 | 14.0 | 0.00 | 0.03 | 0.00 | 71 | 1003.4 |
| 20260830130323 | 70 | 202 | 10.0 | 15.0 | 0.00 | 0.03 | 0.00 | 71 | 1003.4 |
| 20260830130202 | 70 | 205 | 11.0 | 16.0 | 0.00 | 0.03 | 0.00 | 72 | 1003.4 |
| 20260830130002 | 70 | 209 | 11.0 | 16.0 | 0.00 | 0.03 | 0.00 | 72 | 1003.4 |
| 20260830125902 | 70 | 211 | 11.0 | 16.0 | 0.00 | 0.03 | 0.00 | 71 | 1003.4 |
| 20260830125802 | 70 | 211 | 12.0 | 16.0 | 0.00 | 0.03 | 0.00 | 72 | 1003.4 |
| 20260830125702 | 70 | 210 | 12.0 | 16.0 | 0.00 | 0.03 | 0.00 | 72 | 1003.4 |
| 20260830125603 | 70 | 212 | 12.0 | 16.0 | 0.00 | 0.03 | 0.00 | 72 | 1003.4 |
| 20260830125502 | 70 | 213 | 12.0 | 16.0 | 0.00 | 0.03 | 0.00 | 71 | 1003.4 |
| 20260830125402 | 70 | 215 | 12.0 | 16.0 | 0.00 | 0.03 | 0.00 | 71 | 1003.4 |
| 20260830125305 | 70 | 217 | 12.0 | 16.0 | 0.00 | 0.04 | 0.00 | 72 | 1003.4 |
| 20260830125202 | 70 | 220 | 12.0 | 18.0 | 0.00 | 0.04 | 0.00 | 73 | 1003.4 |
| 20260830125102 | 70 | 220 | 11.0 | 18.0 | 0.00 | 0.04 | 0.00 | 72 | 1003.4 |
| 20260830125003 | 70 | 218 | 11.0 | 18.0 | 0.00 | 0.04 | 0.00 | 72 | 1003.4 |
| 20260830124903 | 70 | 218 | 11.0 | 18.0 | 0.00 | 0.04 | 0.00 | 72 | 1003.4 |
| 20260830124802 | 70 | 217 | 11.0 | 18.0 | 0.00 | 0.04 | 0.00 | 72 | 1003.4 |
| 20260830124702 | 70 | 216 | 11.0 | 18.0 | 0.00 | 0.04 | 0.00 | 72 | 1003.4 |
| 20260830124602 | 70 | 216 | 12.0 | 18.0 | 0.00 | 0.04 | 0.00 | 71 | 1003.4 |
| 20260830124502 | 70 | 216 | 12.0 | 18.0 | 0.00 | 0.04 | 0.00 | 72 | 1003.4 |
| 20260830124402 | 70 | 215 | 12.0 | 18.0 | 0.00 | 0.04 | 0.00 | 73 | 1003.4 |
| 20260830124302 | 70 | 215 | 12.0 | 18.0 | 0.00 | 0.04 | 0.00 | 74 | 1003.4 |
| 20260830124223 | 70 | 215 | 12.0 | 18.0 | 0.00 | 0.04 | 0.00 | 74 | 1003.4 |
| 20260830124102 | 70 | 216 | 11.0 | 18.0 | 0.00 | 0.04 | 0.00 | 74 | 1003.4 |
| 20260830124002 | 70 | 216 | 12.0 | 18.0 | 0.00 | 0.05 | 0.00 | 74 | 1003.4 |
| 20260830123902 | 70 | 216 | 12.0 | 18.0 | 0.00 | 0.05 | 0.00 | 74 | 1003.4 |
| 20260830123802 | 70 | 216 | 12.0 | 20.0 | 0.00 | 0.05 | 0.00 | 73 | 1003.4 |
| 20260830123702 | 70 | 219 | 12.0 | 20.0 | 0.00 | 0.05 | 0.00 | 73 | 1003.4 |
| 20260830123602 | 70 | 218 | 11.0 | 20.0 | 0.00 | 0.05 | 0.00 | 73 | 1003.4 |
| 20260830123502 | 70 | 216 | 11.0 | 20.0 | 0.00 | 0.05 | 0.00 | 73 | 1003.4 |
| 20260830123402 | 70 | 215 | 11.0 | 20.0 | 0.00 | 0.05 | 0.00 | 73 | 1003.4 |
| 20260830123303 | 70 | 214 | 11.0 | 20.0 | 0.00 | 0.05 | 0.00 | 73 | 1003.4 |
| 20260830123202 | 70 | 214 | 11.0 | 20.0 | 0.00 | 0.05 | 0.00 | 72 | 1003.4 |
| 20260830123102 | 70 | 215 | 11.0 | 20.0 | 0.00 | 0.05 | 0.00 | 73 | 1003.4 |
| 20260830123023 | 70 | 216 | 11.0 | 20.0 | 0.00 | 0.05 | 0.00 | 73 | 1003.4 |
| 20260830122902 | 70 | 219 | 11.0 | 20.0 | 0.00 | 0.05 | 0.00 | 73 | 1003.4 |
| 20260830122802 | 70 | 220 | 11.0 | 16.0 | 0.00 | 0.05 | 0.00 | 75 | 1003.4 |
| 20260830122702 | 70 | 219 | 11.0 | 16.0 | 0.00 | 0.05 | 0.00 | 74 | 1003.4 |
| 20260830122602 | 70 | 222 | 11.0 | 16.0 | 0.00 | 0.05 | 0.00 | 75 | 1003.4 |
| 20260830122502 | 70 | 224 | 11.0 | 16.0 | 0.00 | 0.05 | 0.00 | 75 | 1003.4 |
| 20260830122423 | 70 | 224 | 11.0 | 16.0 | 0.00 | 0.05 | 0.00 | 75 | 1003.4 |
| 20260830122306 | 70 | 224 | 11.0 | 16.0 | 0.00 | 0.05 | 0.00 | 74 | 1003.4 |
| 20260830122202 | 70 | 222 | 11.0 | 16.0 | 0.00 | 0.05 | 0.00 | 74 | 1003.4 |
| 20260830122123 | 70 | 221 | 11.0 | 16.0 | 0.00 | 0.05 | 0.00 | 74 | 1003.4 |
| 20260830122003 | 69 | 220 | 11.0 | 16.0 | 0.00 | 0.05 | 0.00 | 74 | 1003.4 |
| 20260830121902 | 69 | 220 | 11.0 | 16.0 | 0.00 | 0.05 | 0.00 | 74 | 1003.4 |
| 20260830121802 | 69 | 221 | 11.0 | 16.0 | 0.00 | 0.05 | 0.00 | 75 | 1003.4 |
| 20260830121702 | 69 | 221 | 11.0 | 16.0 | 0.00 | 0.05 | 0.00 | 74 | 1003.4 |
| 20260830121602 | 69 | 221 | 11.0 | 16.0 | 0.00 | 0.05 | 0.00 | 74 | 1003.4 |
| 20260830121503 | 69 | 222 | 11.0 | 16.0 | 0.00 | 0.05 | 0.00 | 74 | 1003.4 |
| 20260830121404 | 69 | 223 | 12.0 | 18.0 | 0.00 | 0.05 | 0.00 | 75 | 1003.4 |
| 20260830121302 | 69 | 226 | 12.0 | 18.0 | 0.00 | 0.05 | 0.00 | 75 | 1003.4 |
| 20260830121223 | 69 | 227 | 12.0 | 18.0 | 0.00 | 0.05 | 0.00 | 75 | 1003.4 |
| 20260830121123 | 69 | 227 | 12.0 | 18.0 | 0.00 | 0.05 | 0.00 | 74 | 1003.4 |
| 20260830121002 | 69 | 228 | 12.0 | 18.0 | 0.00 | 0.05 | 0.00 | 73 | 1003.4 |
| 20260830120923 | 69 | 226 | 12.0 | 18.0 | 0.00 | 0.05 | 0.00 | 73 | 1003.4 |
| 20260830120802 | 70 | 224 | 12.0 | 18.0 | 0.00 | 0.05 | 0.00 | 75 | 1003.4 |
| 20260830120702 | 70 | 224 | 12.0 | 18.0 | 0.00 | 0.05 | 0.00 | 74 | 1003.4 |
| 20260830120602 | 70 | 222 | 11.0 | 18.0 | 0.00 | 0.05 | 0.00 | 76 | 1003.4 |
| 20260830120502 | 70 | 219 | 11.0 | 18.0 | 0.00 | 0.05 | 0.00 | 75 | 1003.4 |
| 20260830120403 | 69 | 218 | 10.0 | 16.0 | 0.00 | 0.05 | 0.00 | 75 | 1003.4 |
| 20260830120302 | 69 | 214 | 10.0 | 16.0 | 0.00 | 0.05 | 0.00 | 73 | 1003.4 |
| 20260830120202 | 69 | 213 | 10.0 | 16.0 | 0.00 | 0.05 | 0.00 | 74 | 1003.4 |
| 20260830120002 | 70 | 211 | 8.0 | 16.0 | 0.00 | 0.05 | 0.00 | 74 | 1003.4 |
| 20260830115902 | 70 | 210 | 8.0 | 15.0 | 0.00 | 0.05 | 0.00 | 75 | 1003.4 |
| 20260830115802 | 70 | 209 | 8.0 | 15.0 | 0.00 | 0.05 | 0.00 | 76 | 1003.4 |
| 20260830115723 | 70 | 209 | 8.0 | 15.0 | 0.00 | 0.05 | 0.00 | 76 | 1003.4 |
| 20260830115602 | 69 | 208 | 8.0 | 15.0 | 0.00 | 0.05 | 0.00 | 77 | 1003.4 |
| 20260830115523 | 69 | 210 | 8.0 | 15.0 | 0.00 | 0.05 | 0.00 | 77 | 1003.4 |
| 20260830115402 | 69 | 210 | 9.0 | 13.0 | 0.00 | 0.05 | 0.00 | 75 | 1003.4 |
| 20260830115306 | 69 | 209 | 9.0 | 13.0 | 0.00 | 0.05 | 0.00 | 76 | 1003.4 |
| 20260830115223 | 69 | 211 | 9.0 | 13.0 | 0.00 | 0.05 | 0.00 | 76 | 1003.4 |
| 20260830115102 | 69 | 214 | 9.0 | 13.0 | 0.00 | 0.05 | 0.00 | 75 | 1003.4 |
| 20260830115002 | 69 | 216 | 9.0 | 13.0 | 0.00 | 0.05 | 0.00 | 76 | 1003.4 |
| 20260830114902 | 69 | 219 | 9.0 | 13.0 | 0.00 | 0.05 | 0.00 | 76 | 1003.4 |
| 20260830114802 | 69 | 222 | 8.0 | 13.0 | 0.00 | 0.05 | 0.00 | 76 | 1003.4 |
| 20260830114702 | 69 | 224 | 8.0 | 13.0 | 0.00 | 0.05 | 0.00 | 77 | 1003.4 |
| 20260830114623 | 69 | 225 | 8.0 | 13.0 | 0.00 | 0.05 | 0.00 | 77 | 1003.4 |
| 20260830114502 | 69 | 227 | 8.0 | 13.0 | 0.00 | 0.05 | 0.00 | 77 | 1003.4 |
| 20260830114402 | 69 | 229 | 7.0 | 13.0 | 0.00 | 0.05 | 0.00 | 78 | 1003.4 |
| 20260830114302 | 69 | 233 | 7.0 | 13.0 | 0.00 | 0.05 | 0.00 | 79 | 1003.4 |
| 20260830114202 | 69 | 230 | 7.0 | 10.0 | 0.00 | 0.05 | 0.00 | 80 | 1003.4 |
| 20260830114102 | 69 | 226 | 8.0 | 10.0 | 0.00 | 0.05 | 0.00 | 81 | 1003.4 |
| 20260830114002 | 68 | 224 | 8.0 | 10.0 | 0.00 | 0.05 | 0.00 | 80 | 1003.4 |
| 20260830113902 | 68 | 220 | 8.0 | 13.0 | 0.00 | 0.05 | 0.00 | 78 | 1003.4 |
| 20260830113802 | 68 | 217 | 8.0 | 13.0 | 0.00 | 0.05 | 0.00 | 79 | 1003.4 |
| 20260830113723 | 68 | 216 | 8.0 | 13.0 | 0.00 | 0.05 | 0.00 | 79 | 1003.4 |
| 20260830113603 | 68 | 213 | 9.0 | 13.0 | 0.00 | 0.05 | 0.00 | 78 | 1003.4 |
| 20260830113502 | 68 | 211 | 9.0 | 13.0 | 0.00 | 0.05 | 0.00 | 79 | 1003.4 |
| 20260830113402 | 68 | 208 | 9.0 | 13.0 | 0.00 | 0.05 | 0.00 | 79 | 1003.4 |
| 20260830113302 | 68 | 207 | 9.0 | 13.0 | 0.00 | 0.05 | 0.00 | 78 | 1003.4 |
| 20260830113223 | 68 | 208 | 9.0 | 13.0 | 0.00 | 0.05 | 0.00 | 78 | 1003.4 |
| 20260830113102 | 69 | 210 | 10.0 | 13.0 | 0.00 | 0.05 | 0.00 | 78 | 1003.4 |
| 20260830113002 | 69 | 211 | 9.0 | 13.0 | 0.00 | 0.05 | 0.00 | 79 | 1003.4 |
| 20260830112902 | 69 | 214 | 10.0 | 13.0 | 0.00 | 0.05 | 0.00 | 79 | 1003.4 |
| 20260830112802 | 69 | 217 | 10.0 | 13.0 | 0.00 | 0.05 | 0.00 | 79 | 1003.4 |
| 20260830112723 | 69 | 219 | 10.0 | 13.0 | 0.00 | 0.05 | 0.00 | 79 | 1003.4 |
| 20260830112623 | 69 | 221 | 9.0 | 13.0 | 0.00 | 0.05 | 0.00 | 79 | 1003.4 |
| 20260830112502 | 69 | 227 | 9.0 | 13.0 | 0.00 | 0.05 | 0.00 | 78 | 1003.4 |
| 20260830112402 | 69 | 230 | 9.0 | 12.0 | 0.00 | 0.05 | 0.00 | 78 | 1003.4 |
| 20260830112306 | 69 | 233 | 9.0 | 12.0 | 0.00 | 0.05 | 0.00 | 79 | 1003.4 |
| 20260830112202 | 69 | 235 | 9.0 | 12.0 | 0.00 | 0.05 | 0.00 | 81 | 1003.4 |
| 20260830112123 | 69 | 236 | 9.0 | 12.0 | 0.00 | 0.05 | 0.00 | 81 | 1003.4 |
| 20260830112002 | 69 | 238 | 9.0 | 12.0 | 0.00 | 0.05 | 0.00 | 80 | 1003.4 |
| 20260830111902 | 68 | 236 | 9.0 | 15.0 | 0.00 | 0.05 | 0.00 | 81 | 1003.4 |
| 20260830111802 | 68 | 235 | 9.0 | 15.0 | 0.00 | 0.05 | 0.00 | 80 | 1003.4 |
| 20260830111702 | 68 | 235 | 9.0 | 15.0 | 0.00 | 0.05 | 0.00 | 80 | 1003.4 |
| 20260830111602 | 68 | 233 | 10.0 | 15.0 | 0.00 | 0.05 | 0.00 | 81 | 1003.4 |
| 20260830111523 | 68 | 230 | 10.0 | 15.0 | 0.00 | 0.05 | 0.00 | 81 | 1003.4 |
| 20260830111402 | 68 | 227 | 10.0 | 15.0 | 0.00 | 0.05 | 0.00 | 81 | 1003.4 |
| 20260830111302 | 68 | 222 | 10.0 | 15.0 | 0.00 | 0.05 | 0.00 | 81 | 1003.4 |
| 20260830111223 | 68 | 219 | 10.0 | 15.0 | 0.00 | 0.05 | 0.00 | 81 | 1003.4 |
| 20260830111102 | 68 | 213 | 11.0 | 15.0 | 0.00 | 0.05 | 0.00 | 81 | 1003.4 |
| 20260830111002 | 68 | 211 | 11.0 | 15.0 | 0.00 | 0.05 | 0.00 | 80 | 1003.4 |
| 20260830110902 | 68 | 210 | 11.0 | 13.0 | 0.00 | 0.05 | 0.00 | 81 | 1003.4 |
| 20260830110823 | 68 | 208 | 11.0 | 13.0 | 0.00 | 0.05 | 0.00 | 81 | 1003.4 |
| 20260830110702 | 68 | 205 | 11.0 | 13.0 | 0.00 | 0.05 | 0.00 | 81 | 1003.4 |
| 20260830110602 | 68 | 203 | 11.0 | 13.0 | 0.00 | 0.05 | 0.00 | 82 | 1003.4 |
| 20260830110502 | 68 | 203 | 10.0 | 13.0 | 0.00 | 0.05 | 0.00 | 81 | 1003.4 |
| 20260830110403 | 68 | 202 | 10.0 | 13.0 | 0.00 | 0.05 | 0.00 | 81 | 1003.4 |
| 20260830110323 | 68 | 203 | 10.0 | 13.0 | 0.00 | 0.05 | 0.00 | 81 | 1003.4 |
| 20260830110223 | 68 | 203 | 10.0 | 13.0 | 0.00 | 0.05 | 0.00 | 82 | 1003.4 |
| 20260830110002 | 68 | 204 | 10.0 | 14.0 | 0.00 | 0.05 | 0.00 | 82 | 1003.4 |
| 20260830105923 | 68 | 204 | 10.0 | 14.0 | 0.00 | 0.05 | 0.00 | 82 | 1003.4 |
| 20260830105823 | 68 | 207 | 10.0 | 14.0 | 0.00 | 0.05 | 0.00 | 83 | 1003.4 |
| 20260830105702 | 68 | 208 | 11.0 | 15.0 | 0.00 | 0.05 | 0.00 | 83 | 1003.4 |
| 20260830105602 | 68 | 208 | 11.0 | 15.0 | 0.00 | 0.05 | 0.00 | 83 | 1003.4 |
| 20260830105502 | 68 | 208 | 11.0 | 15.0 | 0.00 | 0.05 | 0.00 | 82 | 1003.4 |
| 20260830105402 | 67 | 208 | 11.0 | 15.0 | 0.00 | 0.05 | 0.00 | 83 | 1003.4 |
| 20260830105305 | 67 | 208 | 11.0 | 15.0 | 0.00 | 0.05 | 0.00 | 84 | 1003.4 |
| 20260830105223 | 67 | 208 | 11.0 | 15.0 | 0.00 | 0.05 | 0.00 | 84 | 1003.4 |
| 20260830105102 | 67 | 209 | 10.0 | 15.0 | 0.00 | 0.05 | 0.00 | 83 | 1003.4 |
| 20260830105002 | 67 | 210 | 10.0 | 15.0 | 0.00 | 0.05 | 0.00 | 83 | 1003.4 |
| 20260830104902 | 67 | 208 | 10.0 | 15.0 | 0.00 | 0.05 | 0.00 | 83 | 1003.4 |
| 20260830104802 | 67 | 207 | 10.0 | 15.0 | 0.00 | 0.05 | 0.00 | 84 | 1003.4 |
| 20260830104702 | 67 | 207 | 10.0 | 15.0 | 0.00 | 0.05 | 0.00 | 84 | 1003.4 |
| 20260830104623 | 67 | 209 | 10.0 | 14.0 | 0.00 | 0.05 | 0.00 | 84 | 1003.4 |
| 20260830104502 | 67 | 212 | 10.0 | 14.0 | 0.00 | 0.05 | 0.00 | 84 | 1003.4 |
| 20260830104402 | 67 | 214 | 10.0 | 14.0 | 0.00 | 0.05 | 0.00 | 84 | 1003.4 |
| 20260830104302 | 67 | 214 | 10.0 | 14.0 | 0.00 | 0.05 | 0.00 | 84 | 1003.4 |
| 20260830104202 | 67 | 215 | 10.0 | 14.0 | 0.00 | 0.05 | 0.00 | 83 | 1003.4 |
| 20260830104102 | 67 | 216 | 11.0 | 14.0 | 0.00 | 0.05 | 0.00 | 85 | 1003.4 |
| 20260830104002 | 67 | 216 | 11.0 | 14.0 | 0.00 | 0.05 | 0.00 | 84 | 1003.4 |
| 20260830103902 | 66 | 217 | 11.0 | 14.0 | 0.00 | 0.05 | 0.00 | 84 | 1003.4 |
| 20260830103802 | 66 | 218 | 11.0 | 14.0 | 0.00 | 0.05 | 0.00 | 84 | 1003.4 |
| 20260830103702 | 66 | 219 | 11.0 | 14.0 | 0.00 | 0.05 | 0.00 | 84 | 1003.4 |
| 20260830103602 | 66 | 219 | 11.0 | 14.0 | 0.00 | 0.05 | 0.00 | 84 | 1003.4 |
| 20260830103502 | 66 | 220 | 11.0 | 15.0 | 0.00 | 0.05 | 0.00 | 84 | 1003.4 |
| 20260830103423 | 66 | 221 | 11.0 | 15.0 | 0.00 | 0.05 | 0.00 | 84 | 1003.4 |
| 20260830103323 | 66 | 221 | 11.0 | 15.0 | 0.00 | 0.05 | 0.00 | 84 | 1003.4 |
| 20260830103223 | 66 | 220 | 11.0 | 15.0 | 0.00 | 0.05 | 0.00 | 84 | 1003.4 |
| 20260830103123 | 66 | 218 | 11.0 | 15.0 | 0.00 | 0.05 | 0.00 | 84 | 1003.4 |
| 20260830103002 | 66 | 218 | 11.0 | 15.0 | 0.00 | 0.05 | 0.00 | 83 | 1003.4 |
| 20260830102902 | 66 | 218 | 11.0 | 15.0 | 0.00 | 0.05 | 0.00 | 83 | 1003.4 |
| 20260830102802 | 66 | 217 | 10.0 | 15.0 | 0.00 | 0.05 | 0.00 | 84 | 1003.4 |
| 20260830102702 | 66 | 216 | 10.0 | 15.0 | 0.00 | 0.05 | 0.00 | 84 | 1003.4 |
| 20260830102602 | 66 | 215 | 10.0 | 15.0 | 0.00 | 0.05 | 0.00 | 85 | 1003.4 |
| 20260830102502 | 66 | 213 | 9.0 | 15.0 | 0.00 | 0.05 | 0.00 | 85 | 1003.4 |
| 20260830102402 | 66 | 212 | 9.0 | 14.0 | 0.00 | 0.05 | 0.00 | 85 | 1003.4 |
| 20260830102306 | 66 | 215 | 9.0 | 14.0 | 0.00 | 0.05 | 0.00 | 85 | 1003.4 |
| 20260830102202 | 66 | 218 | 9.0 | 14.0 | 0.00 | 0.05 | 0.00 | 86 | 1003.4 |
| 20260830102102 | 66 | 222 | 9.0 | 14.0 | 0.00 | 0.05 | 0.00 | 85 | 1003.4 |
| 20260830102002 | 66 | 225 | 9.0 | 14.0 | 0.00 | 0.05 | 0.00 | 85 | 1003.4 |
| 20260830101902 | 66 | 227 | 9.0 | 14.0 | 0.00 | 0.05 | 0.00 | 85 | 1003.4 |
| 20260830101802 | 66 | 228 | 10.0 | 14.0 | 0.00 | 0.05 | 0.00 | 85 | 1003.4 |
| 20260830101702 | 66 | 229 | 10.0 | 14.0 | 0.00 | 0.05 | 0.00 | 85 | 1003.4 |
| 20260830101602 | 66 | 229 | 10.0 | 14.0 | 0.00 | 0.05 | 0.00 | 84 | 1003.4 |
| 20260830101502 | 66 | 229 | 10.0 | 14.0 | 0.00 | 0.05 | 0.00 | 85 | 1003.4 |
| 20260830101403 | 66 | 228 | 10.0 | 14.0 | 0.00 | 0.05 | 0.00 | 85 | 1003.4 |
| 20260830101323 | 66 | 227 | 10.0 | 14.0 | 0.00 | 0.05 | 0.00 | 85 | 1003.4 |
| 20260830101202 | 66 | 225 | 10.0 | 14.0 | 0.00 | 0.05 | 0.00 | 85 | 1003.4 |
| 20260830101102 | 66 | 223 | 10.0 | 14.0 | 0.00 | 0.05 | 0.00 | 84 | 1003.4 |
| 20260830101002 | 66 | 221 | 10.0 | 14.0 | 0.00 | 0.05 | 0.00 | 84 | 1003.4 |
| 20260830100902 | 66 | 218 | 9.0 | 14.0 | 0.00 | 0.05 | 0.00 | 84 | 1003.4 |
| 20260830100823 | 66 | 217 | 9.0 | 14.0 | 0.00 | 0.05 | 0.00 | 84 | 1003.4 |
| 20260830100702 | 66 | 214 | 9.0 | 14.0 | 0.00 | 0.05 | 0.00 | 84 | 1003.4 |
| 20260830100602 | 66 | 212 | 9.0 | 14.0 | 0.00 | 0.05 | 0.00 | 84 | 1003.4 |
| 20260830100502 | 66 | 210 | 9.0 | 12.0 | 0.00 | 0.05 | 0.00 | 84 | 1003.4 |
| 20260830100402 | 66 | 210 | 9.0 | 12.0 | 0.00 | 0.05 | 0.00 | 84 | 1003.4 |
| 20260830100324 | 66 | 209 | 9.0 | 12.0 | 0.00 | 0.05 | 0.00 | 84 | 1003.4 |
| 20260830100202 | 66 | 205 | 9.0 | 12.0 | 0.00 | 0.05 | 0.00 | 85 | 1003.4 |
| 20260830100002 | 66 | 201 | 9.0 | 12.0 | 0.00 | 0.05 | 0.00 | 84 | 1003.4 |
| 20260830095923 | 66 | 201 | 9.0 | 12.0 | 0.00 | 0.05 | 0.00 | 84 | 1003.4 |
| 20260830095802 | 66 | 201 | 9.0 | 12.0 | 0.00 | 0.05 | 0.00 | 84 | 1003.4 |
| 20260830095702 | 66 | 199 | 8.0 | 12.0 | 0.00 | 0.05 | 0.00 | 84 | 1003.4 |
| 20260830095602 | 66 | 198 | 8.0 | 12.0 | 0.00 | 0.05 | 0.00 | 84 | 1003.4 |
| 20260830095523 | 66 | 198 | 8.0 | 12.0 | 0.00 | 0.05 | 0.00 | 84 | 1003.4 |
| 20260830095423 | 66 | 199 | 8.0 | 12.0 | 0.00 | 0.05 | 0.00 | 84 | 1003.4 |
| 20260830095305 | 66 | 200 | 8.0 | 12.0 | 0.00 | 0.05 | 0.00 | 84 | 1003.4 |
| 20260830095202 | 66 | 202 | 8.0 | 12.0 | 0.00 | 0.05 | 0.00 | 84 | 1003.4 |
| 20260830095102 | 66 | 202 | 7.0 | 12.0 | 0.00 | 0.05 | 0.00 | 85 | 1003.4 |
| 20260830095002 | 66 | 205 | 7.0 | 12.0 | 0.00 | 0.05 | 0.00 | 85 | 1003.4 |
| 20260830094902 | 66 | 207 | 7.0 | 10.0 | 0.00 | 0.05 | 0.00 | 85 | 1003.4 |
| 20260830094802 | 66 | 209 | 7.0 | 10.0 | 0.00 | 0.05 | 0.00 | 85 | 1003.4 |
| 20260830094702 | 66 | 211 | 7.0 | 10.0 | 0.00 | 0.05 | 0.00 | 85 | 1003.4 |
| 20260830094602 | 65 | 213 | 7.0 | 10.0 | 0.00 | 0.05 | 0.00 | 85 | 1003.4 |
| 20260830094502 | 65 | 213 | 7.0 | 10.0 | 0.00 | 0.05 | 0.00 | 85 | 1003.4 |
| 20260830094402 | 65 | 214 | 7.0 | 10.0 | 0.00 | 0.05 | 0.00 | 85 | 1003.4 |
| 20260830094302 | 65 | 215 | 7.0 | 10.0 | 0.00 | 0.05 | 0.00 | 85 | 1003.4 |
| 20260830094202 | 65 | 215 | 7.0 | 11.0 | 0.00 | 0.05 | 0.00 | 85 | 1003.4 |
| 20260830094102 | 65 | 217 | 8.0 | 11.0 | 0.00 | 0.05 | 0.00 | 84 | 1003.4 |
| 20260830094002 | 65 | 217 | 8.0 | 11.0 | 0.00 | 0.05 | 0.00 | 85 | 1003.4 |
| 20260830093902 | 65 | 216 | 8.0 | 11.0 | 0.00 | 0.05 | 0.00 | 86 | 1003.4 |
| 20260830093802 | 65 | 216 | 8.0 | 11.0 | 0.00 | 0.05 | 0.00 | 85 | 1003.4 |
| 20260830093702 | 65 | 216 | 8.0 | 12.0 | 0.00 | 0.05 | 0.00 | 85 | 1003.4 |
| 20260830093602 | 65 | 216 | 8.0 | 12.0 | 0.00 | 0.05 | 0.00 | 85 | 1003.4 |
| 20260830093502 | 65 | 215 | 9.0 | 12.0 | 0.00 | 0.05 | 0.00 | 85 | 1003.4 |
| 20260830093423 | 65 | 214 | 9.0 | 12.0 | 0.00 | 0.05 | 0.00 | 85 | 1003.4 |
| 20260830093323 | 65 | 212 | 9.0 | 12.0 | 0.00 | 0.05 | 0.00 | 84 | 1003.4 |
| 20260830093202 | 65 | 210 | 8.0 | 12.0 | 0.00 | 0.05 | 0.00 | 84 | 1003.4 |
| 20260830093104 | 65 | 209 | 8.0 | 12.0 | 0.00 | 0.05 | 0.00 | 85 | 1003.4 |
| 20260830093002 | 65 | 207 | 8.0 | 12.0 | 0.00 | 0.05 | 0.00 | 85 | 1003.4 |
| 20260830092902 | 65 | 207 | 8.0 | 12.0 | 0.00 | 0.05 | 0.00 | 85 | 1003.4 |
| 20260830092803 | 65 | 205 | 8.0 | 12.0 | 0.00 | 0.05 | 0.00 | 86 | 1003.4 |
| 20260830092702 | 65 | 204 | 8.0 | 12.0 | 0.00 | 0.05 | 0.00 | 86 | 1003.4 |
| 20260830092602 | 65 | 204 | 8.0 | 11.0 | 0.00 | 0.05 | 0.00 | 86 | 1003.4 |
| 20260830092502 | 65 | 205 | 8.0 | 11.0 | 0.00 | 0.05 | 0.00 | 86 | 1003.4 |
| 20260830092402 | 65 | 204 | 8.0 | 11.0 | 0.00 | 0.05 | 0.00 | 86 | 1003.4 |
| 20260830092305 | 65 | 203 | 8.0 | 11.0 | 0.00 | 0.05 | 0.00 | 87 | 1003.4 |
| 20260830092202 | 65 | 203 | 8.0 | 11.0 | 0.00 | 0.05 | 0.00 | 86 | 1003.4 |
| 20260830092103 | 64 | 202 | 8.0 | 11.0 | 0.00 | 0.05 | 0.00 | 86 | 1003.4 |
| 20260830092002 | 64 | 203 | 8.0 | 11.0 | 0.00 | 0.05 | 0.00 | 86 | 1003.4 |
| 20260830091902 | 64 | 205 | 8.0 | 11.0 | 0.00 | 0.05 | 0.00 | 86 | 1003.4 |
| 20260830091803 | 64 | 207 | 8.0 | 12.0 | 0.00 | 0.05 | 0.00 | 87 | 1003.4 |
| 20260830091702 | 64 | 206 | 8.0 | 12.0 | 0.00 | 0.05 | 0.00 | 87 | 1003.4 |
| 20260830091602 | 64 | 206 | 8.0 | 12.0 | 0.00 | 0.05 | 0.00 | 87 | 1003.4 |
| 20260830091502 | 64 | 206 | 8.0 | 12.0 | 0.00 | 0.05 | 0.00 | 87 | 1003.4 |
| 20260830091404 | 64 | 207 | 8.0 | 12.0 | 0.00 | 0.05 | 0.00 | 87 | 1003.4 |
| 20260830091302 | 64 | 209 | 9.0 | 12.0 | 0.00 | 0.05 | 0.00 | 87 | 1003.4 |
| 20260830091202 | 64 | 211 | 9.0 | 12.0 | 0.00 | 0.05 | 0.00 | 87 | 1003.4 |
| 20260830091102 | 64 | 211 | 9.0 | 12.0 | 0.00 | 0.05 | 0.00 | 87 | 1003.4 |
| 20260830091002 | 64 | 211 | 9.0 | 12.0 | 0.00 | 0.05 | 0.00 | 87 | 1003.4 |
| 20260830090902 | 64 | 210 | 8.0 | 12.0 | 0.00 | 0.05 | 0.00 | 87 | 1003.4 |
| 20260830090802 | 64 | 211 | 8.0 | 11.0 | 0.00 | 0.05 | 0.00 | 87 | 1003.4 |
| 20260830090702 | 64 | 214 | 8.0 | 11.0 | 0.00 | 0.05 | 0.00 | 87 | 1003.4 |
| 20260830090602 | 64 | 217 | 8.0 | 11.0 | 0.00 | 0.05 | 0.00 | 87 | 1003.4 |
| 20260830090503 | 64 | 219 | 8.0 | 11.0 | 0.00 | 0.05 | 0.00 | 88 | 1003.4 |
| 20260830090402 | 64 | 221 | 8.0 | 11.0 | 0.00 | 0.05 | 0.00 | 88 | 1003.4 |
| 20260830090302 | 64 | 223 | 8.0 | 10.0 | 0.00 | 0.05 | 0.00 | 88 | 1003.4 |
| 20260830090202 | 64 | 225 | 8.0 | 10.0 | 0.00 | 0.05 | 0.00 | 88 | 1003.4 |
| 20260830090002 | 64 | 226 | 8.0 | 11.0 | 0.00 | 0.05 | 0.00 | 89 | 1003.4 |
| 20260830085903 | 64 | 225 | 8.0 | 11.0 | 0.00 | 0.05 | 0.00 | 88 | 1003.4 |
| 20260830085802 | 64 | 224 | 8.0 | 11.0 | 0.00 | 0.05 | 0.00 | 88 | 1003.4 |
| 20260830085723 | 64 | 223 | 8.0 | 11.0 | 0.00 | 0.05 | 0.00 | 88 | 1003.4 |
| 20260830085602 | 64 | 221 | 8.0 | 11.0 | 0.00 | 0.05 | 0.00 | 88 | 1003.4 |
| 20260830085523 | 64 | 221 | 8.0 | 11.0 | 0.00 | 0.05 | 0.00 | 88 | 1003.4 |
| 20260830085423 | 64 | 220 | 8.0 | 11.0 | 0.00 | 0.05 | 0.00 | 89 | 1003.4 |
| 20260830085323 | 64 | 218 | 8.0 | 11.0 | 0.00 | 0.05 | 0.00 | 89 | 1003.4 |
| 20260830085202 | 64 | 216 | 7.0 | 11.0 | 0.00 | 0.05 | 0.00 | 89 | 1003.4 |
| 20260830085102 | 64 | 215 | 7.0 | 10.0 | 0.00 | 0.05 | 0.00 | 89 | 1003.4 |
| 20260830085003 | 64 | 217 | 7.0 | 10.0 | 0.00 | 0.05 | 0.00 | 89 | 1003.4 |
| 20260830084902 | 64 | 218 | 7.0 | 10.0 | 0.00 | 0.05 | 0.00 | 89 | 1003.4 |
| 20260830084802 | 64 | 219 | 7.0 | 9.0 | 0.00 | 0.05 | 0.00 | 89 | 1003.4 |
| 20260830084723 | 64 | 220 | 7.0 | 10.0 | 0.00 | 0.05 | 0.00 | 89 | 1003.4 |
| 20260830084603 | 64 | 222 | 7.0 | 10.0 | 0.00 | 0.05 | 0.00 | 90 | 1003.4 |
| 20260830084502 | 64 | 224 | 7.0 | 11.0 | 0.00 | 0.05 | 0.00 | 90 | 1003.4 |
| 20260830084402 | 64 | 226 | 7.0 | 12.0 | 0.00 | 0.05 | 0.00 | 90 | 1003.4 |
| 20260830084303 | 63 | 227 | 7.0 | 12.0 | 0.00 | 0.05 | 0.00 | 90 | 1003.4 |
| 20260830084223 | 63 | 226 | 7.0 | 12.0 | 0.00 | 0.05 | 0.00 | 90 | 1003.4 |
| 20260830084102 | 63 | 223 | 8.0 | 12.0 | 0.00 | 0.05 | 0.00 | 90 | 1003.4 |
| 20260830084003 | 63 | 222 | 8.0 | 12.0 | 0.00 | 0.05 | 0.00 | 90 | 1003.4 |
| 20260830083902 | 63 | 221 | 8.0 | 12.0 | 0.00 | 0.05 | 0.00 | 90 | 1003.4 |
| 20260830083803 | 63 | 222 | 8.0 | 12.0 | 0.00 | 0.05 | 0.00 | 90 | 1003.4 |
| 20260830083702 | 63 | 222 | 7.0 | 12.0 | 0.00 | 0.05 | 0.00 | 91 | 1003.4 |
| 20260830083602 | 63 | 221 | 7.0 | 12.0 | 0.00 | 0.05 | 0.00 | 91 | 1003.4 |
| 20260830083502 | 63 | 220 | 7.0 | 12.0 | 0.00 | 0.05 | 0.00 | 92 | 1003.4 |
| 20260830083402 | 63 | 220 | 7.0 | 11.0 | 0.00 | 0.05 | 0.00 | 92 | 1003.4 |
| 20260830083323 | 63 | 220 | 7.0 | 10.0 | 0.00 | 0.05 | 0.00 | 92 | 1003.4 |
| 20260830083202 | 63 | 224 | 7.0 | 10.0 | 0.00 | 0.05 | 0.00 | 92 | 1003.4 |
| 20260830083102 | 63 | 227 | 7.0 | 10.0 | 0.00 | 0.05 | 0.00 | 92 | 1003.4 |
| 20260830083002 | 63 | 228 | 6.0 | 10.0 | 0.00 | 0.05 | 0.00 | 92 | 1003.4 |
| 20260830082903 | 63 | 229 | 6.0 | 10.0 | 0.00 | 0.05 | 0.00 | 92 | 1003.4 |
| 20260830082803 | 63 | 229 | 6.0 | 10.0 | 0.00 | 0.05 | 0.00 | 92 | 1003.4 |
| 20260830082702 | 63 | 228 | 7.0 | 10.0 | 0.00 | 0.05 | 0.00 | 92 | 1003.4 |
| 20260830082603 | 63 | 227 | 7.0 | 10.0 | 0.00 | 0.05 | 0.00 | 93 | 1003.4 |
| 20260830082502 | 63 | 225 | 7.0 | 10.0 | 0.00 | 0.05 | 0.00 | 92 | 1003.4 |
| 20260830082402 | 62 | 224 | 7.0 | 10.0 | 0.00 | 0.05 | 0.00 | 93 | 1003.4 |
| 20260830082306 | 62 | 223 | 7.0 | 10.0 | 0.00 | 0.05 | 0.00 | 93 | 1003.4 |
| 20260830082202 | 62 | 222 | 6.0 | 9.0 | 0.00 | 0.05 | 0.00 | 93 | 1003.4 |
| 20260830082102 | 62 | 221 | 6.0 | 9.0 | 0.00 | 0.05 | 0.00 | 93 | 1003.4 |
| 20260830082002 | 62 | 219 | 6.0 | 9.0 | 0.00 | 0.05 | 0.00 | 94 | 1003.4 |
| 20260830081902 | 62 | 218 | 6.0 | 9.0 | 0.00 | 0.05 | 0.00 | 93 | 1003.4 |
| 20260830081823 | 62 | 217 | 6.0 | 9.0 | 0.00 | 0.05 | 0.00 | 93 | 1003.4 |
| 20260830081703 | 62 | 215 | 6.0 | 9.0 | 0.00 | 0.05 | 0.00 | 94 | 1003.4 |
| 20260830081602 | 62 | 214 | 6.0 | 8.0 | 0.00 | 0.05 | 0.00 | 94 | 1003.4 |
| 20260830081502 | 62 | 213 | 6.0 | 8.0 | 0.00 | 0.05 | 0.00 | 94 | 1003.4 |
| 20260830081423 | 62 | 212 | 6.0 | 8.0 | 0.00 | 0.05 | 0.00 | 94 | 1003.4 |
| 20260830081302 | 62 | 211 | 6.0 | 8.0 | 0.00 | 0.05 | 0.00 | 94 | 1003.4 |
| 20260830081223 | 62 | 210 | 6.0 | 8.0 | 0.00 | 0.05 | 0.00 | 94 | 1003.4 |
| 20260830081102 | 62 | 210 | 6.0 | 8.0 | 0.00 | 0.05 | 0.00 | 95 | 1003.4 |
| 20260830081002 | 62 | 210 | 6.0 | 8.0 | 0.00 | 0.05 | 0.00 | 95 | 1003.4 |
| 20260830080925 | 62 | 210 | 6.0 | 8.0 | 0.00 | 0.05 | 0.00 | 95 | 1003.4 |
| 20260830080803 | 62 | 210 | 6.0 | 8.0 | 0.00 | 0.05 | 0.00 | 95 | 1003.4 |
| 20260830080702 | 61 | 210 | 6.0 | 8.0 | 0.00 | 0.05 | 0.00 | 95 | 1003.4 |
| 20260830080602 | 61 | 210 | 6.0 | 8.0 | 0.00 | 0.05 | 0.00 | 95 | 1003.4 |
| 20260830080502 | 61 | 211 | 6.0 | 7.0 | 0.00 | 0.05 | 0.00 | 95 | 1003.4 |
| 20260830080423 | 61 | 211 | 6.0 | 7.0 | 0.00 | 0.05 | 0.00 | 95 | 1003.4 |
| 20260830080323 | 61 | 212 | 6.0 | 7.0 | 0.00 | 0.05 | 0.00 | 95 | 1003.4 |
| 20260830080224 | 61 | 214 | 6.0 | 7.0 | 0.00 | 0.05 | 0.00 | 95 | 1003.4 |
| 20260830080003 | 61 | 215 | 6.0 | 7.0 | 0.00 | 0.05 | 0.00 | 96 | 1003.4 |
| 20260830075306 | 60 | 213 | 6.0 | 9.0 | 0.00 | 0.05 | 0.00 | 95 | 1003.4 |
| 20260830075203 | 60 | 213 | 7.0 | 9.0 | 0.00 | 0.05 | 0.00 | 95 | 1003.4 |
| 20260830075102 | 60 | 213 | 7.0 | 9.0 | 0.00 | 0.05 | 0.00 | 95 | 1003.4 |
| 20260830075023 | 60 | 213 | 7.0 | 9.0 | 0.00 | 0.05 | 0.00 | 95 | 1003.4 |
| 20260830074902 | 60 | 213 | 7.0 | 9.0 | 0.00 | 0.05 | 0.00 | 95 | 1003.4 |
| 20260830074803 | 60 | 212 | 7.0 | 8.0 | 0.00 | 0.05 | 0.00 | 95 | 1003.4 |
| 20260830074702 | 60 | 212 | 6.0 | 8.0 | 0.00 | 0.05 | 0.00 | 95 | 1003.4 |
| 20260830074602 | 60 | 213 | 6.0 | 8.0 | 0.00 | 0.05 | 0.00 | 95 | 1003.4 |
| 20260830074502 | 60 | 213 | 6.0 | 8.0 | 0.00 | 0.05 | 0.00 | 95 | 1003.4 |
| 20260830074403 | 60 | 214 | 6.0 | 8.0 | 0.00 | 0.05 | 0.00 | 96 | 1003.4 |
| 20260830074302 | 60 | 214 | 6.0 | 8.0 | 0.00 | 0.05 | 0.00 | 96 | 1003.4 |
| 20260830074202 | 60 | 215 | 6.0 | 8.0 | 0.00 | 0.05 | 0.00 | 96 | 1003.4 |
| 20260830074102 | 60 | 215 | 6.0 | 8.0 | 0.00 | 0.05 | 0.00 | 96 | 1003.4 |
| 20260830074002 | 60 | 216 | 6.0 | 8.0 | 0.00 | 0.05 | 0.00 | 96 | 1003.4 |
| 20260830073923 | 60 | 217 | 6.0 | 8.0 | 0.00 | 0.05 | 0.00 | 96 | 1003.4 |
| 20260830073804 | 60 | 218 | 5.0 | 8.0 | 0.00 | 0.05 | 0.00 | 96 | 1003.4 |
| 20260830073725 | 60 | 218 | 5.0 | 8.0 | 0.00 | 0.05 | 0.00 | 96 | 1003.4 |
| 20260830073602 | 60 | 219 | 6.0 | 8.0 | 0.00 | 0.05 | 0.00 | 96 | 1003.4 |
| 20260830073502 | 60 | 220 | 6.0 | 8.0 | 0.00 | 0.05 | 0.00 | 96 | 1003.4 |
| 20260830073402 | 60 | 221 | 6.0 | 8.0 | 0.00 | 0.05 | 0.00 | 96 | 1003.4 |
| 20260830073302 | 60 | 221 | 6.0 | 8.0 | 0.00 | 0.05 | 0.00 | 96 | 1003.4 |
| 20260830073202 | 60 | 221 | 6.0 | 8.0 | 0.00 | 0.05 | 0.00 | 96 | 1003.4 |
| 20260830073102 | 60 | 222 | 6.0 | 8.0 | 0.00 | 0.05 | 0.00 | 96 | 1003.4 |
| 20260830073003 | 60 | 223 | 6.0 | 8.0 | 0.00 | 0.05 | 0.00 | 96 | 1003.4 |
| 20260830072923 | 60 | 223 | 6.0 | 8.0 | 0.00 | 0.05 | 0.00 | 96 | 1003.4 |
| 20260830072804 | 60 | 223 | 6.0 | 8.0 | 0.00 | 0.05 | 0.00 | 96 | 1003.4 |
| 20260830072723 | 60 | 224 | 6.0 | 8.0 | 0.00 | 0.05 | 0.00 | 96 | 1003.4 |
| 20260830072602 | 60 | 224 | 6.0 | 8.0 | 0.00 | 0.05 | 0.00 | 96 | 1003.4 |
| 20260830072503 | 60 | 225 | 6.0 | 8.0 | 0.00 | 0.05 | 0.00 | 96 | 1003.4 |
| 20260830072402 | 60 | 226 | 6.0 | 8.0 | 0.00 | 0.05 | 0.00 | 96 | 1003.4 |
| 20260830072306 | 60 | 228 | 6.0 | 8.0 | 0.00 | 0.05 | 0.00 | 96 | 1003.4 |
| 20260830072203 | 60 | 229 | 6.0 | 8.0 | 0.00 | 0.05 | 0.00 | 96 | 1003.4 |
| 20260830072102 | 60 | 230 | 6.0 | 8.0 | 0.00 | 0.05 | 0.00 | 96 | 1003.4 |
| 20260830072023 | 60 | 231 | 6.0 | 8.0 | 0.00 | 0.05 | 0.00 | 96 | 1003.4 |
| 20260830071902 | 60 | 232 | 6.0 | 8.0 | 0.00 | 0.05 | 0.00 | 97 | 1003.4 |
| 20260830071804 | 60 | 233 | 5.0 | 8.0 | 0.00 | 0.05 | 0.00 | 97 | 1003.4 |
| 20260830071702 | 60 | 233 | 5.0 | 8.0 | 0.00 | 0.05 | 0.00 | 96 | 1003.4 |
| 20260830071602 | 60 | 234 | 5.0 | 8.0 | 0.00 | 0.05 | 0.00 | 96 | 1003.4 |
| 20260830071502 | 60 | 233 | 5.0 | 8.0 | 0.00 | 0.05 | 0.00 | 97 | 1003.4 |
| 20260830071402 | 60 | 233 | 6.0 | 8.0 | 0.00 | 0.05 | 0.00 | 97 | 1003.4 |
| 20260830071302 | 60 | 232 | 6.0 | 8.0 | 0.00 | 0.05 | 0.00 | 97 | 1003.4 |
| 20260830071223 | 60 | 232 | 6.0 | 8.0 | 0.00 | 0.05 | 0.00 | 97 | 1003.4 |
| 20260830071103 | 60 | 231 | 6.0 | 8.0 | 0.00 | 0.05 | 0.00 | 97 | 1003.4 |
| 20260830071002 | 60 | 231 | 6.0 | 8.0 | 0.00 | 0.05 | 0.00 | 97 | 1003.4 |
| 20260830070903 | 60 | 231 | 6.0 | 8.0 | 0.00 | 0.05 | 0.00 | 97 | 1003.4 |
| 20260830070804 | 60 | 230 | 6.0 | 8.0 | 0.00 | 0.05 | 0.00 | 97 | 1003.4 |
| 20260830070723 | 60 | 230 | 6.0 | 8.0 | 0.00 | 0.05 | 0.00 | 97 | 1003.4 |
| 20260830070602 | 60 | 228 | 6.0 | 8.0 | 0.00 | 0.05 | 0.00 | 97 | 1003.4 |
| 20260830070524 | 60 | 228 | 6.0 | 8.0 | 0.00 | 0.05 | 0.00 | 97 | 1003.4 |
| 20260830070402 | 60 | 226 | 6.0 | 8.0 | 0.00 | 0.05 | 0.00 | 97 | 1003.4 |
| 20260830070302 | 60 | 225 | 6.0 | 8.0 | 0.00 | 0.05 | 0.00 | 97 | 1003.4 |
| 20260830070202 | 60 | 223 | 6.0 | 8.0 | 0.00 | 0.05 | 0.00 | 97 | 1003.4 |
| 20260830070003 | 60 | 221 | 6.0 | 8.0 | 0.00 | 0.05 | 0.00 | 97 | 1003.4 |
| 20260830065903 | 60 | 220 | 6.0 | 8.0 | 0.00 | 0.05 | 0.00 | 97 | 1003.4 |
| 20260830065802 | 60 | 219 | 6.0 | 8.0 | 0.00 | 0.05 | 0.00 | 97 | 1003.4 |
| 20260830065702 | 60 | 220 | 6.0 | 8.0 | 0.00 | 0.05 | 0.00 | 97 | 1003.4 |
| 20260830065602 | 60 | 220 | 6.0 | 8.0 | 0.00 | 0.05 | 0.00 | 97 | 1003.4 |
| 20260830065502 | 60 | 221 | 6.0 | 8.0 | 0.00 | 0.05 | 0.00 | 97 | 1003.4 |
| 20260830065403 | 60 | 222 | 6.0 | 8.0 | 0.00 | 0.05 | 0.00 | 97 | 1003.4 |
| 20260830065306 | 60 | 223 | 6.0 | 8.0 | 0.00 | 0.05 | 0.00 | 97 | 1003.4 |
| 20260830065202 | 60 | 224 | 6.0 | 8.0 | 0.00 | 0.05 | 0.00 | 97 | 1003.4 |
| 20260830065102 | 60 | 224 | 6.0 | 8.0 | 0.00 | 0.05 | 0.00 | 97 | 1003.4 |
| 20260830065003 | 60 | 225 | 6.0 | 8.0 | 0.00 | 0.05 | 0.00 | 97 | 1003.4 |
| 20260830064903 | 60 | 225 | 6.0 | 8.0 | 0.00 | 0.05 | 0.00 | 97 | 1003.4 |
| 20260830064802 | 60 | 226 | 6.0 | 8.0 | 0.00 | 0.05 | 0.00 | 97 | 1003.4 |
| 20260830064702 | 60 | 226 | 6.0 | 8.0 | 0.00 | 0.05 | 0.00 | 97 | 1003.4 |
| 20260830064623 | 60 | 227 | 6.0 | 8.0 | 0.00 | 0.05 | 0.00 | 97 | 1003.4 |
| 20260830064523 | 60 | 228 | 6.0 | 8.0 | 0.00 | 0.05 | 0.00 | 97 | 1003.4 |
| 20260830064423 | 60 | 228 | 5.0 | 8.0 | 0.00 | 0.05 | 0.00 | 97 | 1003.4 |
| 20260830064302 | 60 | 230 | 5.0 | 7.0 | 0.00 | 0.05 | 0.00 | 97 | 1003.4 |
| 20260830064203 | 60 | 231 | 5.0 | 7.0 | 0.00 | 0.05 | 0.00 | 97 | 1003.4 |
| 20260830064102 | 60 | 232 | 6.0 | 7.0 | 0.00 | 0.05 | 0.00 | 97 | 1003.4 |
| 20260830064023 | 60 | 232 | 6.0 | 7.0 | 0.00 | 0.05 | 0.00 | 97 | 1003.4 |
| 20260830063902 | 60 | 234 | 5.0 | 7.0 | 0.00 | 0.05 | 0.00 | 97 | 1003.4 |
| 20260830063823 | 60 | 235 | 5.0 | 7.0 | 0.00 | 0.05 | 0.00 | 97 | 1003.4 |
| 20260830063702 | 60 | 236 | 5.0 | 7.0 | 0.00 | 0.05 | 0.00 | 97 | 1003.4 |
| 20260830063602 | 59 | 236 | 5.0 | 7.0 | 0.00 | 0.05 | 0.00 | 97 | 1003.4 |
| 20260830063503 | 59 | 237 | 5.0 | 7.0 | 0.00 | 0.05 | 0.00 | 97 | 1003.4 |
| 20260830063402 | 59 | 238 | 5.0 | 7.0 | 0.00 | 0.05 | 0.00 | 97 | 1003.4 |
| 20260830063302 | 59 | 238 | 5.0 | 7.0 | 0.00 | 0.05 | 0.00 | 97 | 1003.4 |
| 20260830063203 | 59 | 238 | 5.0 | 7.0 | 0.00 | 0.05 | 0.00 | 97 | 1003.4 |
| 20260830063103 | 59 | 238 | 5.0 | 7.0 | 0.00 | 0.05 | 0.00 | 97 | 1003.4 |
| 20260830063023 | 59 | 238 | 5.0 | 7.0 | 0.00 | 0.05 | 0.00 | 97 | 1003.4 |
| 20260830062902 | 59 | 238 | 5.0 | 7.0 | 0.00 | 0.05 | 0.00 | 97 | 1003.4 |
| 20260830062802 | 59 | 239 | 6.0 | 7.0 | 0.00 | 0.05 | 0.00 | 97 | 1003.4 |
| 20260830062702 | 59 | 239 | 6.0 | 7.0 | 0.00 | 0.05 | 0.00 | 97 | 1003.4 |
| 20260830062602 | 59 | 239 | 6.0 | 7.0 | 0.00 | 0.05 | 0.00 | 97 | 1003.4 |
| 20260830062502 | 59 | 239 | 6.0 | 7.0 | 0.00 | 0.05 | 0.00 | 97 | 1003.4 |
| 20260830062402 | 59 | 239 | 6.0 | 7.0 | 0.00 | 0.05 | 0.00 | 97 | 1003.4 |
| 20260830062305 | 59 | 239 | 6.0 | 7.0 | 0.00 | 0.05 | 0.00 | 97 | 1003.4 |
| 20260830062223 | 59 | 239 | 6.0 | 8.0 | 0.00 | 0.05 | 0.00 | 97 | 1003.4 |
| 20260830062102 | 59 | 238 | 6.0 | 8.0 | 0.00 | 0.05 | 0.00 | 97 | 1003.4 |
| 20260830062002 | 59 | 238 | 6.0 | 8.0 | 0.00 | 0.05 | 0.00 | 97 | 1003.4 |
| 20260830061902 | 59 | 238 | 6.0 | 8.0 | 0.00 | 0.05 | 0.00 | 97 | 1003.4 |
| 20260830061802 | 59 | 238 | 6.0 | 8.0 | 0.00 | 0.05 | 0.00 | 97 | 1003.4 |
| 20260830061723 | 59 | 237 | 6.0 | 8.0 | 0.00 | 0.05 | 0.00 | 97 | 1003.4 |
| 20260830061602 | 59 | 237 | 6.0 | 8.0 | 0.00 | 0.05 | 0.00 | 97 | 1003.4 |
| 20260830061503 | 59 | 237 | 6.0 | 8.0 | 0.00 | 0.05 | 0.00 | 97 | 1003.4 |
| 20260830061402 | 59 | 236 | 6.0 | 8.0 | 0.00 | 0.05 | 0.00 | 97 | 1003.4 |
| 20260830061323 | 59 | 236 | 6.0 | 8.0 | 0.00 | 0.05 | 0.00 | 97 | 1003.4 |
| 20260830061223 | 59 | 236 | 6.0 | 8.0 | 0.00 | 0.05 | 0.00 | 97 | 1003.4 |
| 20260830061123 | 59 | 235 | 6.0 | 8.0 | 0.00 | 0.05 | 0.00 | 97 | 1003.4 |
| 20260830061002 | 59 | 235 | 6.0 | 8.0 | 0.00 | 0.05 | 0.00 | 97 | 1003.4 |
| 20260830060904 | 59 | 235 | 6.0 | 8.0 | 0.00 | 0.05 | 0.00 | 97 | 1003.4 |
| 20260830060803 | 59 | 235 | 6.0 | 8.0 | 0.00 | 0.05 | 0.00 | 97 | 1003.4 |
| 20260830060703 | 59 | 234 | 6.0 | 8.0 | 0.00 | 0.05 | 0.00 | 97 | 1003.4 |
| 20260830060602 | 59 | 234 | 6.0 | 8.0 | 0.00 | 0.05 | 0.00 | 97 | 1003.4 |
| 20260830060502 | 59 | 234 | 6.0 | 9.0 | 0.00 | 0.05 | 0.00 | 97 | 1003.4 |
| 20260830060402 | 60 | 233 | 6.0 | 9.0 | 0.00 | 0.05 | 0.00 | 97 | 1003.4 |
| 20260830060302 | 60 | 233 | 6.0 | 10.0 | 0.00 | 0.05 | 0.00 | 97 | 1003.4 |
| 20260830060202 | 60 | 232 | 7.0 | 10.0 | 0.00 | 0.05 | 0.00 | 97 | 1003.4 |
| 20260830060003 | 60 | 232 | 7.0 | 10.0 | 0.00 | 0.05 | 0.00 | 97 | 1003.4 |
| 20260830055902 | 60 | 232 | 7.0 | 10.0 | 0.00 | 0.05 | 0.00 | 97 | 1003.4 |
| 20260830055802 | 60 | 233 | 7.0 | 10.0 | 0.00 | 0.05 | 0.00 | 97 | 1003.4 |
| 20260830055702 | 60 | 234 | 7.0 | 10.0 | 0.00 | 0.05 | 0.00 | 97 | 1003.4 |
| 20260830055602 | 60 | 235 | 7.0 | 10.0 | 0.00 | 0.05 | 0.00 | 97 | 1003.4 |
| 20260830055502 | 60 | 237 | 7.0 | 10.0 | 0.00 | 0.05 | 0.00 | 97 | 1003.4 |
| 20260830055403 | 60 | 240 | 6.0 | 10.0 | 0.00 | 0.05 | 0.00 | 97 | 1003.4 |
| 20260830055324 | 60 | 241 | 6.0 | 9.0 | 0.00 | 0.05 | 0.00 | 97 | 1003.4 |
| 20260830055203 | 60 | 245 | 6.0 | 9.0 | 0.00 | 0.05 | 0.00 | 97 | 1003.4 |
| 20260830055103 | 60 | 248 | 6.0 | 9.0 | 0.00 | 0.05 | 0.00 | 97 | 1003.4 |
| 20260830055002 | 60 | 251 | 6.0 | 9.0 | 0.00 | 0.05 | 0.00 | 97 | 1003.4 |
| 20260830054902 | 60 | 255 | 5.0 | 9.0 | 0.00 | 0.05 | 0.00 | 97 | 1003.4 |
| 20260830054823 | 60 | 257 | 5.0 | 8.0 | 0.00 | 0.05 | 0.00 | 97 | 1003.4 |
| 20260830054702 | 60 | 260 | 5.0 | 7.0 | 0.00 | 0.05 | 0.00 | 97 | 1003.4 |
| 20260830054602 | 60 | 262 | 5.0 | 7.0 | 0.00 | 0.05 | 0.00 | 97 | 1003.4 |
| 20260830054502 | 60 | 263 | 5.0 | 6.0 | 0.00 | 0.05 | 0.00 | 97 | 1003.4 |
| 20260830054403 | 60 | 263 | 5.0 | 6.0 | 0.00 | 0.05 | 0.00 | 97 | 1003.4 |
| 20260830054302 | 60 | 264 | 5.0 | 6.0 | 0.00 | 0.05 | 0.00 | 97 | 1003.4 |
| 20260830054203 | 60 | 264 | 5.0 | 6.0 | 0.00 | 0.05 | 0.00 | 97 | 1003.4 |
| 20260830054102 | 60 | 265 | 5.0 | 6.0 | 0.00 | 0.05 | 0.00 | 97 | 1003.4 |
| 20260830054002 | 60 | 265 | 5.0 | 6.0 | 0.00 | 0.05 | 0.00 | 97 | 1003.4 |
| 20260830053902 | 60 | 266 | 5.0 | 6.0 | 0.00 | 0.05 | 0.00 | 97 | 1003.4 |
| 20260830053802 | 60 | 267 | 5.0 | 6.0 | 0.00 | 0.05 | 0.00 | 97 | 1003.4 |
| 20260830053724 | 60 | 267 | 5.0 | 6.0 | 0.00 | 0.05 | 0.00 | 97 | 1003.4 |
| 20260830053602 | 60 | 268 | 5.0 | 6.0 | 0.00 | 0.05 | 0.00 | 97 | 1003.4 |
| 20260830053502 | 60 | 268 | 4.0 | 6.0 | 0.00 | 0.05 | 0.00 | 97 | 1003.4 |
| 20260830053423 | 60 | 269 | 4.0 | 6.0 | 0.00 | 0.05 | 0.00 | 97 | 1003.4 |
| 20260830053302 | 60 | 269 | 4.0 | 8.0 | 0.00 | 0.05 | 0.00 | 97 | 1003.4 |
| 20260830053202 | 60 | 268 | 4.0 | 8.0 | 0.00 | 0.05 | 0.00 | 97 | 1003.4 |
| 20260830053102 | 60 | 266 | 5.0 | 8.0 | 0.00 | 0.05 | 0.00 | 97 | 1003.4 |
| 20260830053003 | 60 | 265 | 5.0 | 8.0 | 0.00 | 0.05 | 0.00 | 97 | 1003.4 |
| 20260830052902 | 60 | 264 | 5.0 | 8.0 | 0.00 | 0.05 | 0.00 | 97 | 1003.4 |
| 20260830052802 | 60 | 262 | 5.0 | 8.0 | 0.00 | 0.05 | 0.00 | 97 | 1003.4 |
| 20260830052703 | 60 | 260 | 5.0 | 8.0 | 0.00 | 0.05 | 0.00 | 97 | 1003.4 |
| 20260830052602 | 60 | 259 | 5.0 | 8.0 | 0.00 | 0.05 | 0.00 | 97 | 1003.4 |
| 20260830052502 | 60 | 257 | 5.0 | 8.0 | 0.00 | 0.05 | 0.00 | 97 | 1003.4 |
| 20260830052402 | 60 | 255 | 4.0 | 8.0 | 0.00 | 0.05 | 0.00 | 97 | 1003.4 |
| 20260830052306 | 60 | 254 | 4.0 | 7.0 | 0.00 | 0.05 | 0.00 | 97 | 1003.4 |
| 20260830052202 | 60 | 254 | 4.0 | 7.0 | 0.00 | 0.05 | 0.00 | 97 | 1003.4 |
| 20260830052102 | 60 | 254 | 4.0 | 7.0 | 0.00 | 0.05 | 0.00 | 97 | 1003.4 |
| 20260830052003 | 60 | 254 | 4.0 | 7.0 | 0.00 | 0.05 | 0.00 | 97 | 1003.4 |
| 20260830051903 | 60 | 254 | 4.0 | 7.0 | 0.00 | 0.05 | 0.00 | 97 | 1003.4 |
| 20260830051802 | 60 | 254 | 4.0 | 7.0 | 0.00 | 0.05 | 0.00 | 97 | 1003.4 |
| 20260830051702 | 60 | 254 | 4.0 | 7.0 | 0.00 | 0.05 | 0.00 | 97 | 1003.4 |
| 20260830051602 | 60 | 254 | 3.0 | 7.0 | 0.00 | 0.05 | 0.00 | 97 | 1003.4 |
| 20260830051503 | 60 | 254 | 3.0 | 7.0 | 0.00 | 0.05 | 0.00 | 97 | 1003.4 |
| 20260830051403 | 60 | 254 | 4.0 | 7.0 | 0.00 | 0.05 | 0.00 | 97 | 1003.4 |
| 20260830051302 | 60 | 254 | 3.0 | 7.0 | 0.00 | 0.05 | 0.00 | 97 | 1003.4 |
| 20260830051202 | 60 | 254 | 4.0 | 7.0 | 0.00 | 0.05 | 0.00 | 97 | 1003.4 |
| 20260830051103 | 60 | 254 | 4.0 | 7.0 | 0.00 | 0.05 | 0.00 | 97 | 1003.4 |
| 20260830051002 | 60 | 253 | 4.0 | 7.0 | 0.00 | 0.05 | 0.00 | 97 | 1003.4 |
| 20260830050902 | 60 | 252 | 4.0 | 7.0 | 0.00 | 0.05 | 0.00 | 97 | 1003.4 |
| 20260830050803 | 60 | 252 | 4.0 | 7.0 | 0.00 | 0.05 | 0.00 | 97 | 1003.4 |
| 20260830050702 | 60 | 251 | 4.0 | 7.0 | 0.00 | 0.05 | 0.00 | 97 | 1003.4 |
| 20260830050602 | 60 | 251 | 4.0 | 7.0 | 0.00 | 0.05 | 0.00 | 97 | 1003.4 |
| 20260830050502 | 60 | 250 | 5.0 | 7.0 | 0.00 | 0.05 | 0.00 | 97 | 1003.4 |
| 20260830050402 | 60 | 250 | 5.0 | 7.0 | 0.00 | 0.05 | 0.00 | 97 | 1003.4 |
| 20260830050302 | 60 | 249 | 5.0 | 7.0 | 0.00 | 0.05 | 0.00 | 97 | 1003.4 |
| 20260830050204 | 60 | 249 | 5.0 | 7.0 | 0.00 | 0.05 | 0.00 | 97 | 1003.4 |
| 20260830050002 | 60 | 249 | 5.0 | 7.0 | 0.00 | 0.05 | 0.00 | 97 | 1003.4 |
| 20260830045902 | 60 | 248 | 5.0 | 7.0 | 0.00 | 0.05 | 0.00 | 97 | 1003.4 |
| 20260830045802 | 60 | 248 | 5.0 | 7.0 | 0.00 | 0.05 | 0.00 | 97 | 1003.4 |
| 20260830045723 | 60 | 248 | 5.0 | 7.0 | 0.00 | 0.05 | 0.00 | 97 | 1003.4 |
| 20260830045602 | 60 | 248 | 5.0 | 7.0 | 0.00 | 0.05 | 0.00 | 97 | 1003.4 |
| 20260830045502 | 60 | 248 | 5.0 | 7.0 | 0.00 | 0.05 | 0.00 | 97 | 1003.4 |
| 20260830045423 | 60 | 248 | 5.0 | 7.0 | 0.00 | 0.05 | 0.00 | 97 | 1003.4 |
| 20260830045324 | 60 | 248 | 5.0 | 7.0 | 0.00 | 0.05 | 0.00 | 97 | 1003.4 |
| 20260830045203 | 60 | 249 | 5.0 | 7.0 | 0.00 | 0.05 | 0.00 | 97 | 1003.4 |
| 20260830045103 | 60 | 249 | 5.0 | 7.0 | 0.00 | 0.05 | 0.00 | 97 | 1003.4 |
| 20260830045002 | 60 | 249 | 5.0 | 7.0 | 0.00 | 0.05 | 0.00 | 97 | 1003.4 |
| 20260830044902 | 60 | 249 | 5.0 | 7.0 | 0.00 | 0.05 | 0.00 | 97 | 1003.4 |
| 20260830044802 | 60 | 249 | 5.0 | 7.0 | 0.00 | 0.05 | 0.00 | 97 | 1003.4 |
| 20260830044703 | 60 | 249 | 5.0 | 7.0 | 0.00 | 0.05 | 0.00 | 97 | 1003.4 |
| 20260830044604 | 60 | 249 | 5.0 | 7.0 | 0.00 | 0.05 | 0.00 | 97 | 1003.4 |
| 20260830044502 | 60 | 250 | 5.0 | 7.0 | 0.00 | 0.05 | 0.00 | 97 | 1003.4 |
| 20260830044402 | 60 | 250 | 5.0 | 7.0 | 0.00 | 0.05 | 0.00 | 97 | 1003.4 |
| 20260830044303 | 60 | 250 | 5.0 | 7.0 | 0.00 | 0.05 | 0.00 | 97 | 1003.4 |
| 20260830044203 | 60 | 250 | 5.0 | 7.0 | 0.00 | 0.05 | 0.00 | 97 | 1003.4 |
| 20260830044102 | 60 | 250 | 5.0 | 7.0 | 0.00 | 0.05 | 0.00 | 97 | 1003.4 |
| 20260830044023 | 60 | 251 | 5.0 | 7.0 | 0.00 | 0.05 | 0.00 | 97 | 1003.4 |
| 20260830043902 | 60 | 253 | 5.0 | 7.0 | 0.00 | 0.05 | 0.00 | 97 | 1003.4 |
| 20260830043802 | 60 | 255 | 5.0 | 7.0 | 0.00 | 0.05 | 0.00 | 97 | 1003.4 |
| 20260830043703 | 60 | 256 | 5.0 | 7.0 | 0.00 | 0.05 | 0.00 | 97 | 1003.4 |
| 20260830043602 | 60 | 258 | 5.0 | 7.0 | 0.00 | 0.05 | 0.00 | 97 | 1003.4 |
| 20260830043502 | 60 | 260 | 5.0 | 7.0 | 0.00 | 0.05 | 0.00 | 97 | 1003.4 |
| 20260830043423 | 60 | 261 | 5.0 | 7.0 | 0.00 | 0.05 | 0.00 | 97 | 1003.4 |
| 20260830043302 | 60 | 263 | 4.0 | 7.0 | 0.00 | 0.05 | 0.00 | 97 | 1003.4 |
| 20260830043203 | 60 | 265 | 4.0 | 7.0 | 0.00 | 0.05 | 0.00 | 97 | 1003.4 |
| 20260830043102 | 60 | 267 | 4.0 | 7.0 | 0.00 | 0.05 | 0.00 | 97 | 1003.4 |
| 20260830043002 | 60 | 269 | 3.0 | 6.0 | 0.00 | 0.05 | 0.00 | 97 | 1003.4 |
| 20260830042903 | 60 | 269 | 3.0 | 6.0 | 0.00 | 0.05 | 0.00 | 97 | 1003.4 |
| 20260830042802 | 60 | 269 | 3.0 | 6.0 | 0.00 | 0.05 | 0.00 | 97 | 1003.4 |
| 20260830042723 | 60 | 270 | 3.0 | 6.0 | 0.00 | 0.05 | 0.00 | 97 | 1003.4 |
| 20260830042602 | 60 | 270 | 3.0 | 5.0 | 0.00 | 0.05 | 0.00 | 97 | 1003.4 |
| 20260830042524 | 60 | 270 | 3.0 | 5.0 | 0.00 | 0.05 | 0.00 | 97 | 1003.4 |
| 20260830042402 | 60 | 270 | 2.0 | 5.0 | 0.00 | 0.05 | 0.00 | 97 | 1003.4 |
| 20260830042305 | 60 | 270 | 2.0 | 5.0 | 0.00 | 0.05 | 0.00 | 97 | 1003.4 |
| 20260830042202 | 60 | 270 | 2.0 | 5.0 | 0.00 | 0.05 | 0.00 | 97 | 1003.4 |
| 20260830042103 | 60 | 270 | 3.0 | 6.0 | 0.00 | 0.05 | 0.00 | 97 | 1003.4 |
| 20260830042002 | 60 | 270 | 2.0 | 6.0 | 0.00 | 0.05 | 0.00 | 97 | 1003.4 |
| 20260830041902 | 60 | 271 | 2.0 | 6.0 | 0.00 | 0.05 | 0.00 | 97 | 1003.4 |
| 20260830041824 | 60 | 271 | 2.0 | 6.0 | 0.00 | 0.05 | 0.00 | 97 | 1003.4 |
| 20260830041702 | 60 | 271 | 3.0 | 6.0 | 0.00 | 0.05 | 0.00 | 97 | 1003.4 |
| 20260830041603 | 60 | 271 | 3.0 | 6.0 | 0.00 | 0.05 | 0.00 | 97 | 1003.4 |
| 20260830041502 | 60 | 271 | 3.0 | 6.0 | 0.00 | 0.05 | 0.00 | 97 | 1003.4 |
| 20260830041423 | 60 | 271 | 3.0 | 6.0 | 0.00 | 0.05 | 0.00 | 97 | 1003.4 |
| 20260830041304 | 60 | 272 | 3.0 | 6.0 | 0.00 | 0.05 | 0.00 | 97 | 1003.4 |
| 20260830041223 | 60 | 272 | 3.0 | 6.0 | 0.00 | 0.05 | 0.00 | 97 | 1003.4 |
| 20260830041102 | 60 | 273 | 3.0 | 6.0 | 0.00 | 0.05 | 0.00 | 97 | 1003.4 |
| 20260830041002 | 60 | 273 | 3.0 | 6.0 | 0.00 | 0.05 | 0.00 | 97 | 1003.4 |
| 20260830040903 | 60 | 274 | 4.0 | 6.0 | 0.00 | 0.05 | 0.00 | 97 | 1003.4 |
| 20260830040802 | 60 | 274 | 4.0 | 6.0 | 0.00 | 0.05 | 0.00 | 97 | 1003.4 |
| 20260830040724 | 60 | 274 | 4.0 | 6.0 | 0.00 | 0.05 | 0.00 | 97 | 1003.4 |
| 20260830040603 | 60 | 275 | 4.0 | 6.0 | 0.00 | 0.05 | 0.00 | 96 | 1003.4 |
| 20260830040524 | 60 | 275 | 4.0 | 6.0 | 0.00 | 0.05 | 0.00 | 96 | 1003.4 |
| 20260830040402 | 60 | 275 | 4.0 | 6.0 | 0.00 | 0.05 | 0.00 | 96 | 1003.4 |
| 20260830040302 | 60 | 275 | 4.0 | 6.0 | 0.00 | 0.05 | 0.00 | 96 | 1003.4 |
| 20260830040203 | 60 | 276 | 4.0 | 6.0 | 0.00 | 0.05 | 0.00 | 97 | 1003.4 |
| 20260830040002 | 60 | 275 | 4.0 | 6.0 | 0.00 | 0.05 | 0.00 | 96 | 1003.4 |
| 20260830035903 | 60 | 275 | 4.0 | 8.0 | 0.00 | 0.05 | 0.00 | 96 | 1003.4 |
| 20260830035802 | 60 | 275 | 4.0 | 8.0 | 0.00 | 0.05 | 0.00 | 96 | 1003.4 |
| 20260830035702 | 60 | 275 | 4.0 | 8.0 | 0.00 | 0.05 | 0.00 | 96 | 1003.4 |
| 20260830035623 | 60 | 275 | 4.0 | 8.0 | 0.00 | 0.05 | 0.00 | 96 | 1003.4 |
| 20260830035502 | 60 | 275 | 4.0 | 8.0 | 0.00 | 0.05 | 0.00 | 96 | 1003.4 |
| 20260830035403 | 60 | 275 | 5.0 | 8.0 | 0.00 | 0.05 | 0.00 | 96 | 1003.4 |
| 20260830035306 | 60 | 275 | 5.0 | 8.0 | 0.00 | 0.05 | 0.00 | 96 | 1003.4 |
| 20260830035202 | 60 | 275 | 5.0 | 8.0 | 0.00 | 0.05 | 0.00 | 96 | 1003.4 |
| 20260830035123 | 60 | 275 | 5.0 | 8.0 | 0.00 | 0.05 | 0.00 | 96 | 1003.4 |
| 20260830035002 | 60 | 275 | 5.0 | 8.0 | 0.00 | 0.05 | 0.00 | 96 | 1003.4 |
| 20260830034904 | 60 | 275 | 4.0 | 8.0 | 0.00 | 0.05 | 0.00 | 96 | 1003.4 |
| 20260830034802 | 60 | 275 | 4.0 | 6.0 | 0.00 | 0.05 | 0.00 | 96 | 1003.4 |
| 20260830034702 | 60 | 276 | 4.0 | 6.0 | 0.00 | 0.05 | 0.00 | 96 | 1003.4 |
| 20260830034602 | 60 | 276 | 4.0 | 6.0 | 0.00 | 0.05 | 0.00 | 96 | 1003.4 |
| 20260830034502 | 60 | 277 | 4.0 | 6.0 | 0.00 | 0.05 | 0.00 | 96 | 1003.4 |
| 20260830034423 | 60 | 277 | 4.0 | 6.0 | 0.00 | 0.05 | 0.00 | 96 | 1003.4 |
| 20260830034324 | 60 | 278 | 4.0 | 6.0 | 0.00 | 0.05 | 0.00 | 96 | 1003.4 |
| 20260830034203 | 60 | 278 | 5.0 | 6.0 | 0.00 | 0.05 | 0.00 | 96 | 1003.4 |
| 20260830034103 | 60 | 279 | 5.0 | 7.0 | 0.00 | 0.05 | 0.00 | 96 | 1003.4 |
| 20260830034002 | 60 | 279 | 5.0 | 7.0 | 0.00 | 0.05 | 0.00 | 96 | 1003.4 |
| 20260830033924 | 60 | 279 | 5.0 | 7.0 | 0.00 | 0.05 | 0.00 | 96 | 1003.4 |
| 20260830033802 | 60 | 279 | 5.0 | 7.0 | 0.00 | 0.05 | 0.00 | 96 | 1003.4 |
| 20260830033723 | 60 | 279 | 5.0 | 7.0 | 0.00 | 0.05 | 0.00 | 96 | 1003.4 |
| 20260830033623 | 60 | 279 | 5.0 | 7.0 | 0.00 | 0.05 | 0.00 | 96 | 1003.4 |
| 20260830033523 | 60 | 279 | 5.0 | 7.0 | 0.00 | 0.05 | 0.00 | 96 | 1003.4 |
| 20260830033403 | 60 | 278 | 5.0 | 7.0 | 0.00 | 0.05 | 0.00 | 96 | 1003.4 |
| 20260830033302 | 60 | 278 | 5.0 | 7.0 | 0.00 | 0.05 | 0.00 | 96 | 1003.4 |
| 20260830033203 | 60 | 278 | 5.0 | 7.0 | 0.00 | 0.05 | 0.00 | 96 | 1003.4 |
| 20260830033102 | 60 | 278 | 5.0 | 7.0 | 0.00 | 0.05 | 0.00 | 96 | 1003.4 |
| 20260830033002 | 60 | 277 | 5.0 | 7.0 | 0.00 | 0.05 | 0.00 | 96 | 1003.4 |
| 20260830032924 | 60 | 278 | 5.0 | 7.0 | 0.00 | 0.05 | 0.00 | 96 | 1003.4 |
| 20260830032802 | 60 | 277 | 5.0 | 7.0 | 0.00 | 0.05 | 0.00 | 96 | 1003.4 |
| 20260830032702 | 60 | 277 | 5.0 | 7.0 | 0.00 | 0.05 | 0.00 | 96 | 1003.4 |
| 20260830032603 | 60 | 277 | 5.0 | 7.0 | 0.00 | 0.05 | 0.00 | 96 | 1003.4 |
| 20260830032503 | 60 | 276 | 5.0 | 7.0 | 0.00 | 0.05 | 0.00 | 96 | 1003.4 |
| 20260830032402 | 60 | 276 | 5.0 | 7.0 | 0.00 | 0.05 | 0.00 | 96 | 1003.4 |
| 20260830032305 | 60 | 275 | 5.0 | 7.0 | 0.00 | 0.05 | 0.00 | 96 | 1003.4 |
| 20260830032223 | 60 | 275 | 5.0 | 7.0 | 0.00 | 0.05 | 0.00 | 96 | 1003.4 |
| 20260830032124 | 60 | 274 | 5.0 | 7.0 | 0.00 | 0.05 | 0.00 | 96 | 1003.4 |
| 20260830032023 | 60 | 274 | 4.0 | 7.0 | 0.00 | 0.05 | 0.00 | 96 | 1003.4 |
| 20260830031902 | 60 | 274 | 4.0 | 6.0 | 0.00 | 0.05 | 0.00 | 96 | 1003.4 |
| 20260830031802 | 60 | 274 | 4.0 | 6.0 | 0.00 | 0.05 | 0.00 | 96 | 1003.4 |
| 20260830031703 | 60 | 274 | 4.0 | 6.0 | 0.00 | 0.05 | 0.00 | 96 | 1003.4 |
| 20260830031602 | 60 | 274 | 4.0 | 6.0 | 0.00 | 0.05 | 0.00 | 96 | 1003.4 |
| 20260830031503 | 60 | 274 | 4.0 | 6.0 | 0.00 | 0.05 | 0.00 | 96 | 1003.4 |
| 20260830031402 | 60 | 274 | 4.0 | 6.0 | 0.00 | 0.05 | 0.00 | 96 | 1003.4 |
| 20260830031303 | 60 | 274 | 4.0 | 6.0 | 0.00 | 0.05 | 0.00 | 96 | 1003.4 |
| 20260830031224 | 60 | 274 | 4.0 | 6.0 | 0.00 | 0.05 | 0.00 | 96 | 1003.4 |
| 20260830031102 | 60 | 274 | 4.0 | 5.0 | 0.00 | 0.05 | 0.00 | 96 | 1003.4 |
| 20260830031003 | 60 | 274 | 3.0 | 5.0 | 0.00 | 0.05 | 0.00 | 96 | 1003.4 |
| 20260830030903 | 60 | 274 | 3.0 | 5.0 | 0.00 | 0.05 | 0.00 | 96 | 1003.4 |
| 20260830030802 | 60 | 274 | 3.0 | 5.0 | 0.00 | 0.05 | 0.00 | 96 | 1003.4 |
| 20260830030703 | 60 | 274 | 3.0 | 5.0 | 0.00 | 0.05 | 0.00 | 96 | 1003.4 |
| 20260830030603 | 60 | 274 | 3.0 | 6.0 | 0.00 | 0.05 | 0.00 | 96 | 1003.4 |
| 20260830030502 | 60 | 274 | 3.0 | 7.0 | 0.00 | 0.05 | 0.00 | 96 | 1003.4 |
| 20260830030402 | 60 | 274 | 3.0 | 7.0 | 0.00 | 0.05 | 0.00 | 96 | 1003.4 |
| 20260830030324 | 60 | 274 | 3.0 | 7.0 | 0.00 | 0.05 | 0.00 | 96 | 1003.4 |
| 20260830030202 | 60 | 274 | 4.0 | 7.0 | 0.00 | 0.05 | 0.00 | 96 | 1003.4 |
| 20260830030002 | 60 | 275 | 4.0 | 7.0 | 0.00 | 0.05 | 0.00 | 96 | 1003.4 |
| 20260830025903 | 60 | 275 | 4.0 | 7.0 | 0.00 | 0.05 | 0.00 | 96 | 1003.4 |
| 20260830025803 | 60 | 275 | 4.0 | 7.0 | 0.00 | 0.05 | 0.00 | 96 | 1003.4 |
| 20260830025703 | 60 | 275 | 4.0 | 7.0 | 0.00 | 0.05 | 0.00 | 96 | 1003.4 |
| 20260830025602 | 60 | 276 | 4.0 | 7.0 | 0.00 | 0.05 | 0.00 | 96 | 1003.4 |
| 20260830025503 | 60 | 277 | 3.0 | 6.0 | 0.00 | 0.05 | 0.00 | 96 | 1003.4 |
| 20260830025404 | 60 | 277 | 4.0 | 6.0 | 0.00 | 0.05 | 0.00 | 96 | 1003.4 |
| 20260830025306 | 60 | 278 | 4.0 | 6.0 | 0.00 | 0.05 | 0.00 | 96 | 1003.4 |
| 20260830025202 | 60 | 279 | 4.0 | 6.0 | 0.00 | 0.05 | 0.00 | 96 | 1003.4 |
| 20260830025103 | 60 | 279 | 4.0 | 6.0 | 0.00 | 0.05 | 0.00 | 96 | 1003.4 |
| 20260830025003 | 60 | 280 | 4.0 | 6.0 | 0.00 | 0.05 | 0.00 | 96 | 1003.4 |
| 20260830024903 | 60 | 280 | 4.0 | 6.0 | 0.00 | 0.05 | 0.00 | 96 | 1003.4 |
| 20260830024802 | 60 | 281 | 4.0 | 6.0 | 0.00 | 0.05 | 0.00 | 96 | 1003.4 |
| 20260830024702 | 60 | 281 | 4.0 | 6.0 | 0.00 | 0.05 | 0.00 | 96 | 1003.4 |
| 20260830024603 | 60 | 281 | 5.0 | 7.0 | 0.00 | 0.05 | 0.00 | 96 | 1003.4 |
| 20260830024502 | 60 | 281 | 5.0 | 7.0 | 0.00 | 0.05 | 0.00 | 96 | 1003.4 |
| 20260830024403 | 60 | 281 | 5.0 | 7.0 | 0.00 | 0.05 | 0.00 | 96 | 1003.4 |
| 20260830024302 | 60 | 281 | 5.0 | 7.0 | 0.00 | 0.05 | 0.00 | 96 | 1003.4 |
| 20260830024224 | 60 | 281 | 5.0 | 7.0 | 0.00 | 0.05 | 0.00 | 96 | 1003.4 |
| 20260830024124 | 60 | 282 | 5.0 | 7.0 | 0.00 | 0.05 | 0.00 | 96 | 1003.4 |
| 20260830024002 | 60 | 282 | 5.0 | 7.0 | 0.00 | 0.05 | 0.00 | 96 | 1003.4 |
| 20260830023903 | 60 | 282 | 5.0 | 7.0 | 0.00 | 0.05 | 0.00 | 96 | 1003.4 |
| 20260830023802 | 60 | 283 | 5.0 | 7.0 | 0.00 | 0.05 | 0.00 | 96 | 1003.4 |
| 20260830023702 | 60 | 284 | 5.0 | 7.0 | 0.00 | 0.05 | 0.00 | 96 | 1003.4 |
| 20260830023602 | 60 | 285 | 5.0 | 7.0 | 0.00 | 0.05 | 0.00 | 96 | 1003.4 |
| 20260830023524 | 60 | 286 | 5.0 | 7.0 | 0.00 | 0.05 | 0.00 | 96 | 1003.4 |
| 20260830023402 | 60 | 287 | 5.0 | 7.0 | 0.00 | 0.05 | 0.00 | 96 | 1003.4 |
| 20260830023302 | 60 | 289 | 6.0 | 7.0 | 0.00 | 0.05 | 0.00 | 96 | 1003.4 |
| 20260830023202 | 60 | 290 | 6.0 | 7.0 | 0.00 | 0.05 | 0.00 | 96 | 1003.4 |
| 20260830023103 | 60 | 291 | 6.0 | 7.0 | 0.00 | 0.05 | 0.00 | 96 | 1003.4 |
| 20260830023002 | 60 | 292 | 6.0 | 7.0 | 0.00 | 0.05 | 0.00 | 96 | 1003.4 |
| 20260830022925 | 60 | 293 | 6.0 | 7.0 | 0.00 | 0.05 | 0.00 | 96 | 1003.4 |
| 20260830022803 | 60 | 294 | 6.0 | 7.0 | 0.00 | 0.05 | 0.00 | 96 | 1003.4 |
| 20260830022702 | 60 | 295 | 6.0 | 8.0 | 0.00 | 0.05 | 0.00 | 96 | 1003.4 |
| 20260830022602 | 60 | 295 | 6.0 | 8.0 | 0.00 | 0.05 | 0.00 | 96 | 1003.4 |
| 20260830022504 | 60 | 295 | 6.0 | 8.0 | 0.00 | 0.05 | 0.00 | 96 | 1003.4 |
| 20260830022403 | 60 | 295 | 6.0 | 8.0 | 0.00 | 0.05 | 0.00 | 96 | 1003.4 |
| 20260830022305 | 60 | 294 | 6.0 | 8.0 | 0.00 | 0.05 | 0.00 | 96 | 1003.4 |
| 20260830022224 | 60 | 294 | 6.0 | 8.0 | 0.00 | 0.05 | 0.00 | 96 | 1003.4 |
| 20260830022103 | 60 | 293 | 6.0 | 8.0 | 0.00 | 0.05 | 0.00 | 96 | 1003.4 |
| 20260830022003 | 60 | 292 | 6.0 | 8.0 | 0.00 | 0.05 | 0.00 | 96 | 1003.4 |
| 20260830021903 | 60 | 292 | 6.0 | 8.0 | 0.00 | 0.05 | 0.00 | 96 | 1003.4 |
| 20260830021802 | 60 | 291 | 6.0 | 8.0 | 0.00 | 0.05 | 0.00 | 96 | 1003.4 |
| 20260830021702 | 60 | 291 | 6.0 | 8.0 | 0.00 | 0.05 | 0.00 | 96 | 1003.4 |
| 20260830021603 | 60 | 290 | 6.0 | 8.0 | 0.00 | 0.05 | 0.00 | 96 | 1003.4 |
| 20260830021502 | 60 | 291 | 6.0 | 7.0 | 0.00 | 0.05 | 0.00 | 96 | 1003.4 |
| 20260830021423 | 60 | 291 | 6.0 | 7.0 | 0.00 | 0.05 | 0.00 | 96 | 1003.4 |
| 20260830021302 | 60 | 292 | 6.0 | 8.0 | 0.00 | 0.05 | 0.00 | 96 | 1003.4 |
| 20260830021202 | 60 | 292 | 6.0 | 8.0 | 0.00 | 0.05 | 0.00 | 96 | 1003.4 |
| 20260830021103 | 60 | 292 | 6.0 | 8.0 | 0.00 | 0.05 | 0.00 | 96 | 1003.4 |
| 20260830021023 | 60 | 292 | 6.0 | 8.0 | 0.00 | 0.05 | 0.00 | 96 | 1003.4 |
| 20260830020902 | 60 | 292 | 6.0 | 8.0 | 0.00 | 0.05 | 0.00 | 96 | 1003.4 |
| 20260830020803 | 60 | 293 | 6.0 | 8.0 | 0.00 | 0.05 | 0.00 | 96 | 1003.4 |
| 20260830020702 | 60 | 293 | 6.0 | 8.0 | 0.00 | 0.05 | 0.00 | 96 | 1003.4 |
| 20260830020602 | 60 | 293 | 6.0 | 8.0 | 0.00 | 0.05 | 0.00 | 96 | 1003.4 |
| 20260830020502 | 60 | 294 | 6.0 | 9.0 | 0.00 | 0.05 | 0.00 | 96 | 1003.4 |
| 20260830020403 | 60 | 294 | 6.0 | 9.0 | 0.00 | 0.05 | 0.00 | 96 | 1003.4 |
| 20260830020303 | 60 | 294 | 6.0 | 9.0 | 0.00 | 0.05 | 0.00 | 96 | 1003.4 |
| 20260830020224 | 60 | 295 | 6.0 | 9.0 | 0.00 | 0.05 | 0.00 | 96 | 1003.4 |
| 20260830020002 | 60 | 296 | 7.0 | 9.0 | 0.00 | 0.05 | 0.00 | 95 | 1003.4 |
| 20260830015924 | 60 | 296 | 7.0 | 9.0 | 0.00 | 0.05 | 0.00 | 95 | 1003.4 |
| 20260830015802 | 60 | 296 | 7.0 | 9.0 | 0.00 | 0.05 | 0.00 | 95 | 1003.4 |
| 20260830015702 | 60 | 296 | 7.0 | 9.0 | 0.00 | 0.05 | 0.00 | 95 | 1003.4 |
| 20260830015602 | 60 | 295 | 7.0 | 9.0 | 0.00 | 0.05 | 0.00 | 95 | 1003.4 |
| 20260830015502 | 60 | 294 | 7.0 | 9.0 | 0.00 | 0.05 | 0.00 | 95 | 1003.4 |
| 20260830015402 | 60 | 293 | 7.0 | 9.0 | 0.00 | 0.05 | 0.00 | 95 | 1003.4 |
| 20260830015305 | 60 | 292 | 6.0 | 9.0 | 0.00 | 0.05 | 0.00 | 95 | 1003.4 |
| 20260830015203 | 60 | 291 | 7.0 | 9.0 | 0.00 | 0.05 | 0.00 | 95 | 1003.4 |
| 20260830015103 | 60 | 291 | 7.0 | 9.0 | 0.00 | 0.05 | 0.00 | 95 | 1003.4 |
| 20260830015002 | 60 | 290 | 7.0 | 9.0 | 0.00 | 0.05 | 0.00 | 95 | 1003.4 |
| 20260830014903 | 60 | 289 | 7.0 | 9.0 | 0.00 | 0.05 | 0.00 | 95 | 1003.4 |
| 20260830014804 | 60 | 289 | 6.0 | 8.0 | 0.00 | 0.05 | 0.00 | 95 | 1003.4 |
| 20260830014703 | 60 | 289 | 7.0 | 8.0 | 0.00 | 0.05 | 0.00 | 95 | 1003.4 |
| 20260830014602 | 60 | 290 | 7.0 | 9.0 | 0.00 | 0.05 | 0.00 | 95 | 1003.4 |
| 20260830014502 | 60 | 290 | 7.0 | 9.0 | 0.00 | 0.05 | 0.00 | 95 | 1003.4 |
| 20260830014403 | 60 | 290 | 7.0 | 9.0 | 0.00 | 0.05 | 0.00 | 95 | 1003.4 |
| 20260830014303 | 60 | 290 | 7.0 | 9.0 | 0.00 | 0.05 | 0.00 | 95 | 1003.4 |
| 20260830014202 | 60 | 290 | 7.0 | 9.0 | 0.00 | 0.05 | 0.00 | 95 | 1003.4 |
| 20260830014102 | 60 | 290 | 7.0 | 9.0 | 0.00 | 0.05 | 0.00 | 95 | 1003.4 |
| 20260830014025 | 60 | 290 | 7.0 | 9.0 | 0.00 | 0.05 | 0.00 | 95 | 1003.4 |
| 20260830013903 | 60 | 290 | 7.0 | 9.0 | 0.00 | 0.05 | 0.00 | 95 | 1003.4 |
| 20260830013803 | 60 | 290 | 7.0 | 9.0 | 0.00 | 0.05 | 0.00 | 95 | 1003.4 |
| 20260830013703 | 60 | 289 | 7.0 | 9.0 | 0.00 | 0.05 | 0.00 | 95 | 1003.4 |
| 20260830013603 | 60 | 290 | 7.0 | 9.0 | 0.00 | 0.05 | 0.00 | 95 | 1003.4 |
| 20260830013524 | 60 | 290 | 7.0 | 9.0 | 0.00 | 0.05 | 0.00 | 95 | 1003.4 |
| 20260830013402 | 60 | 289 | 7.0 | 9.0 | 0.00 | 0.05 | 0.00 | 95 | 1003.4 |
| 20260830013324 | 60 | 290 | 7.0 | 9.0 | 0.00 | 0.05 | 0.00 | 95 | 1003.4 |
| 20260830013203 | 60 | 290 | 7.0 | 9.0 | 0.00 | 0.05 | 0.00 | 95 | 1003.4 |
| 20260830013102 | 60 | 289 | 7.0 | 9.0 | 0.00 | 0.05 | 0.00 | 95 | 1003.4 |
| 20260830013003 | 60 | 289 | 6.0 | 9.0 | 0.00 | 0.05 | 0.00 | 95 | 1003.4 |
| 20260830012902 | 60 | 289 | 6.0 | 9.0 | 0.00 | 0.05 | 0.00 | 95 | 1003.4 |
| 20260830012824 | 60 | 288 | 6.0 | 9.0 | 0.00 | 0.05 | 0.00 | 95 | 1003.4 |
| 20260830012702 | 60 | 288 | 6.0 | 8.0 | 0.00 | 0.05 | 0.00 | 95 | 1003.4 |
| 20260830012602 | 60 | 286 | 6.0 | 8.0 | 0.00 | 0.05 | 0.00 | 95 | 1003.4 |
| 20260830012502 | 60 | 286 | 6.0 | 8.0 | 0.00 | 0.05 | 0.00 | 95 | 1003.4 |
| 20260830012403 | 59 | 285 | 6.0 | 8.0 | 0.00 | 0.05 | 0.00 | 95 | 1003.4 |
| 20260830012306 | 59 | 284 | 6.0 | 8.0 | 0.00 | 0.05 | 0.00 | 95 | 1003.4 |
| 20260830012202 | 59 | 284 | 6.0 | 8.0 | 0.00 | 0.05 | 0.00 | 95 | 1003.4 |
| 20260830012102 | 59 | 284 | 6.0 | 8.0 | 0.00 | 0.05 | 0.00 | 95 | 1003.4 |
| 20260830012003 | 59 | 284 | 6.0 | 8.0 | 0.00 | 0.05 | 0.00 | 95 | 1003.4 |
| 20260830011903 | 59 | 283 | 6.0 | 8.0 | 0.00 | 0.05 | 0.00 | 95 | 1003.4 |
| 20260830011803 | 59 | 284 | 6.0 | 8.0 | 0.00 | 0.05 | 0.00 | 95 | 1003.4 |
| 20260830011702 | 59 | 284 | 6.0 | 8.0 | 0.00 | 0.05 | 0.00 | 95 | 1003.4 |
| 20260830011624 | 59 | 284 | 6.0 | 8.0 | 0.00 | 0.05 | 0.00 | 95 | 1003.4 |
| 20260830011503 | 59 | 285 | 6.0 | 8.0 | 0.00 | 0.05 | 0.00 | 95 | 1003.4 |
| 20260830011423 | 59 | 285 | 6.0 | 8.0 | 0.00 | 0.05 | 0.00 | 95 | 1003.4 |
| 20260830011324 | 59 | 286 | 6.0 | 8.0 | 0.00 | 0.05 | 0.00 | 95 | 1003.4 |
| 20260830011202 | 59 | 286 | 6.0 | 8.0 | 0.00 | 0.05 | 0.00 | 95 | 1003.4 |
| 20260830011102 | 59 | 286 | 6.0 | 8.0 | 0.00 | 0.05 | 0.00 | 95 | 1003.4 |
| 20260830011003 | 59 | 286 | 6.0 | 8.0 | 0.00 | 0.05 | 0.00 | 95 | 1003.4 |
| 20260830010903 | 59 | 286 | 6.0 | 8.0 | 0.00 | 0.05 | 0.00 | 95 | 1003.4 |
| 20260830010802 | 59 | 286 | 6.0 | 8.0 | 0.00 | 0.05 | 0.00 | 95 | 1003.4 |
| 20260830010703 | 59 | 286 | 6.0 | 8.0 | 0.00 | 0.05 | 0.00 | 95 | 1003.4 |
| 20260830010602 | 59 | 286 | 6.0 | 8.0 | 0.00 | 0.05 | 0.00 | 95 | 1003.4 |
| 20260830010502 | 59 | 285 | 6.0 | 8.0 | 0.00 | 0.05 | 0.00 | 95 | 1003.4 |
| 20260830010403 | 59 | 285 | 6.0 | 8.0 | 0.00 | 0.05 | 0.00 | 95 | 1003.4 |
| 20260830010303 | 59 | 285 | 6.0 | 8.0 | 0.00 | 0.05 | 0.00 | 95 | 1003.4 |
| 20260830010202 | 59 | 285 | 6.0 | 8.0 | 0.00 | 0.05 | 0.00 | 95 | 1003.4 |